<?xml version="1.0" encoding="UTF-8" standalone="no" ?>
<gpx xmlns="http://www.topografix.com/GPX/1/1" xmlns:xsi="http://www.w3.org/2001/XMLSchema-instance" xsi:schemaLocation="http://www.topografix.com/GPX/1/1 http://www.topografix.com/GPX/1/1/gpx.xsd" version="1.1" creator="VisuGPX - https://www.visugpx.com">
  <metadata>
    <name>Cyclo 75kms</name>
  </metadata>
  <trk>
    <name><![CDATA[Rando 2023-9298929]]></name>
    <trkseg>
      <trkpt lat="47.04221" lon="-0.88596">
        <ele>106</ele>
        <time>2023-05-08T19:41:38Z</time>
      </trkpt>
      <trkpt lat="47.0422" lon="-0.88588">
        <ele>106</ele>
        <time>2023-05-08T19:41:39Z</time>
      </trkpt>
      <trkpt lat="47.04198" lon="-0.88586">
        <ele>106</ele>
        <time>2023-05-08T19:41:43Z</time>
      </trkpt>
      <trkpt lat="47.04206" lon="-0.88515">
        <ele>106</ele>
        <time>2023-05-08T19:41:52Z</time>
      </trkpt>
      <trkpt lat="47.04159" lon="-0.88508">
        <ele>107</ele>
        <time>2023-05-08T19:42:00Z</time>
      </trkpt>
      <trkpt lat="47.04095" lon="-0.88502">
        <ele>110</ele>
        <time>2023-05-08T19:42:11Z</time>
      </trkpt>
      <trkpt lat="47.04054" lon="-0.88502">
        <ele>111</ele>
        <time>2023-05-08T19:42:19Z</time>
      </trkpt>
      <trkpt lat="47.03992" lon="-0.88511">
        <ele>112</ele>
        <time>2023-05-08T19:42:30Z</time>
      </trkpt>
      <trkpt lat="47.03951" lon="-0.88521">
        <ele>113</ele>
        <time>2023-05-08T19:42:37Z</time>
      </trkpt>
      <trkpt lat="47.03949" lon="-0.88534">
        <ele>113</ele>
        <time>2023-05-08T19:42:39Z</time>
      </trkpt>
      <trkpt lat="47.03943" lon="-0.88545">
        <ele>113</ele>
        <time>2023-05-08T19:42:41Z</time>
      </trkpt>
      <trkpt lat="47.03934" lon="-0.88551">
        <ele>113</ele>
        <time>2023-05-08T19:42:42Z</time>
      </trkpt>
      <trkpt lat="47.03925" lon="-0.88551">
        <ele>113</ele>
        <time>2023-05-08T19:42:44Z</time>
      </trkpt>
      <trkpt lat="47.03917" lon="-0.88545">
        <ele>113</ele>
        <time>2023-05-08T19:42:46Z</time>
      </trkpt>
      <trkpt lat="47.03911" lon="-0.88534">
        <ele>113</ele>
        <time>2023-05-08T19:42:47Z</time>
      </trkpt>
      <trkpt lat="47.03909" lon="-0.88521">
        <ele>113</ele>
        <time>2023-05-08T19:42:49Z</time>
      </trkpt>
      <trkpt lat="47.03888" lon="-0.88521">
        <ele>114</ele>
        <time>2023-05-08T19:42:53Z</time>
      </trkpt>
      <trkpt lat="47.03324" lon="-0.88445">
        <ele>120</ele>
        <time>2023-05-08T19:44:33Z</time>
      </trkpt>
      <trkpt lat="47.03282" lon="-0.88434">
        <ele>121</ele>
        <time>2023-05-08T19:44:41Z</time>
      </trkpt>
      <trkpt lat="47.03189" lon="-0.88404">
        <ele>124</ele>
        <time>2023-05-08T19:44:58Z</time>
      </trkpt>
      <trkpt lat="47.03158" lon="-0.88389">
        <ele>124</ele>
        <time>2023-05-08T19:45:04Z</time>
      </trkpt>
      <trkpt lat="47.03134" lon="-0.88372">
        <ele>125</ele>
        <time>2023-05-08T19:45:08Z</time>
      </trkpt>
      <trkpt lat="47.03049" lon="-0.88296">
        <ele>126</ele>
        <time>2023-05-08T19:45:26Z</time>
      </trkpt>
      <trkpt lat="47.02946" lon="-0.882">
        <ele>127</ele>
        <time>2023-05-08T19:45:48Z</time>
      </trkpt>
      <trkpt lat="47.02929" lon="-0.88188">
        <ele>127</ele>
        <time>2023-05-08T19:45:51Z</time>
      </trkpt>
      <trkpt lat="47.02866" lon="-0.88149">
        <ele>128</ele>
        <time>2023-05-08T19:46:03Z</time>
      </trkpt>
      <trkpt lat="47.02808" lon="-0.88116">
        <ele>128</ele>
        <time>2023-05-08T19:46:14Z</time>
      </trkpt>
      <trkpt lat="47.02778" lon="-0.88105">
        <ele>128</ele>
        <time>2023-05-08T19:46:20Z</time>
      </trkpt>
      <trkpt lat="47.02718" lon="-0.88089">
        <ele>127</ele>
        <time>2023-05-08T19:46:31Z</time>
      </trkpt>
      <trkpt lat="47.0244" lon="-0.88104">
        <ele>126</ele>
        <time>2023-05-08T19:47:20Z</time>
      </trkpt>
      <trkpt lat="47.02399" lon="-0.8811">
        <ele>126</ele>
        <time>2023-05-08T19:47:28Z</time>
      </trkpt>
      <trkpt lat="47.02358" lon="-0.88121">
        <ele>126</ele>
        <time>2023-05-08T19:47:35Z</time>
      </trkpt>
      <trkpt lat="47.02284" lon="-0.88152">
        <ele>126</ele>
        <time>2023-05-08T19:47:49Z</time>
      </trkpt>
      <trkpt lat="47.02252" lon="-0.88171">
        <ele>126</ele>
        <time>2023-05-08T19:47:55Z</time>
      </trkpt>
      <trkpt lat="47.02222" lon="-0.88193">
        <ele>126</ele>
        <time>2023-05-08T19:48:01Z</time>
      </trkpt>
      <trkpt lat="47.02128" lon="-0.88275">
        <ele>128</ele>
        <time>2023-05-08T19:48:20Z</time>
      </trkpt>
      <trkpt lat="47.02118" lon="-0.88282">
        <ele>128</ele>
        <time>2023-05-08T19:48:22Z</time>
      </trkpt>
      <trkpt lat="47.0209" lon="-0.883">
        <ele>128</ele>
        <time>2023-05-08T19:48:28Z</time>
      </trkpt>
      <trkpt lat="47.02058" lon="-0.88315">
        <ele>129</ele>
        <time>2023-05-08T19:48:34Z</time>
      </trkpt>
      <trkpt lat="47.02036" lon="-0.88321">
        <ele>130</ele>
        <time>2023-05-08T19:48:38Z</time>
      </trkpt>
      <trkpt lat="47.0201" lon="-0.88325">
        <ele>131</ele>
        <time>2023-05-08T19:48:42Z</time>
      </trkpt>
      <trkpt lat="47.01987" lon="-0.88326">
        <ele>131</ele>
        <time>2023-05-08T19:48:46Z</time>
      </trkpt>
      <trkpt lat="47.01945" lon="-0.88319">
        <ele>133</ele>
        <time>2023-05-08T19:48:54Z</time>
      </trkpt>
      <trkpt lat="47.01867" lon="-0.88291">
        <ele>133</ele>
        <time>2023-05-08T19:49:08Z</time>
      </trkpt>
      <trkpt lat="47.01812" lon="-0.88281">
        <ele>133</ele>
        <time>2023-05-08T19:49:18Z</time>
      </trkpt>
      <trkpt lat="47.01778" lon="-0.88282">
        <ele>133</ele>
        <time>2023-05-08T19:49:24Z</time>
      </trkpt>
      <trkpt lat="47.0175" lon="-0.88287">
        <ele>133</ele>
        <time>2023-05-08T19:49:29Z</time>
      </trkpt>
      <trkpt lat="47.01734" lon="-0.88293">
        <ele>134</ele>
        <time>2023-05-08T19:49:32Z</time>
      </trkpt>
      <trkpt lat="47.01727" lon="-0.88297">
        <ele>134</ele>
        <time>2023-05-08T19:49:33Z</time>
      </trkpt>
      <trkpt lat="47.01722" lon="-0.88308">
        <ele>134</ele>
        <time>2023-05-08T19:49:35Z</time>
      </trkpt>
      <trkpt lat="47.01717" lon="-0.88311">
        <ele>134</ele>
        <time>2023-05-08T19:49:36Z</time>
      </trkpt>
      <trkpt lat="47.01711" lon="-0.88311">
        <ele>134</ele>
        <time>2023-05-08T19:49:37Z</time>
      </trkpt>
      <trkpt lat="47.01706" lon="-0.88308">
        <ele>134</ele>
        <time>2023-05-08T19:49:38Z</time>
      </trkpt>
      <trkpt lat="47.01702" lon="-0.88304">
        <ele>134</ele>
        <time>2023-05-08T19:49:39Z</time>
      </trkpt>
      <trkpt lat="47.01686" lon="-0.88303">
        <ele>134</ele>
        <time>2023-05-08T19:49:42Z</time>
      </trkpt>
      <trkpt lat="47.01557" lon="-0.88336">
        <ele>134</ele>
        <time>2023-05-08T19:50:05Z</time>
      </trkpt>
      <trkpt lat="47.01505" lon="-0.88346">
        <ele>135</ele>
        <time>2023-05-08T19:50:14Z</time>
      </trkpt>
      <trkpt lat="47.01445" lon="-0.88361">
        <ele>135</ele>
        <time>2023-05-08T19:50:25Z</time>
      </trkpt>
      <trkpt lat="47.01357" lon="-0.88387">
        <ele>134</ele>
        <time>2023-05-08T19:50:41Z</time>
      </trkpt>
      <trkpt lat="47.01295" lon="-0.8841">
        <ele>134</ele>
        <time>2023-05-08T19:50:53Z</time>
      </trkpt>
      <trkpt lat="47.01128" lon="-0.88489">
        <ele>135</ele>
        <time>2023-05-08T19:51:24Z</time>
      </trkpt>
      <trkpt lat="47.01022" lon="-0.88553">
        <ele>133</ele>
        <time>2023-05-08T19:51:44Z</time>
      </trkpt>
      <trkpt lat="47.01" lon="-0.88569">
        <ele>133</ele>
        <time>2023-05-08T19:51:49Z</time>
      </trkpt>
      <trkpt lat="47.0099" lon="-0.88543">
        <ele>133</ele>
        <time>2023-05-08T19:51:52Z</time>
      </trkpt>
      <trkpt lat="47.00989" lon="-0.88524">
        <ele>134</ele>
        <time>2023-05-08T19:51:54Z</time>
      </trkpt>
      <trkpt lat="47.00991" lon="-0.88517">
        <ele>134</ele>
        <time>2023-05-08T19:51:55Z</time>
      </trkpt>
      <trkpt lat="47.00998" lon="-0.88505">
        <ele>134</ele>
        <time>2023-05-08T19:51:57Z</time>
      </trkpt>
      <trkpt lat="47.01007" lon="-0.88501">
        <ele>134</ele>
        <time>2023-05-08T19:51:59Z</time>
      </trkpt>
      <trkpt lat="47.01133" lon="-0.88464">
        <ele>136</ele>
        <time>2023-05-08T19:52:22Z</time>
      </trkpt>
      <trkpt lat="47.0114" lon="-0.88459">
        <ele>136</ele>
        <time>2023-05-08T19:52:23Z</time>
      </trkpt>
      <trkpt lat="47.01148" lon="-0.8845">
        <ele>136</ele>
        <time>2023-05-08T19:52:25Z</time>
      </trkpt>
      <trkpt lat="47.01153" lon="-0.88438">
        <ele>136</ele>
        <time>2023-05-08T19:52:27Z</time>
      </trkpt>
      <trkpt lat="47.01155" lon="-0.88425">
        <ele>137</ele>
        <time>2023-05-08T19:52:28Z</time>
      </trkpt>
      <trkpt lat="47.01156" lon="-0.88414">
        <ele>137</ele>
        <time>2023-05-08T19:52:30Z</time>
      </trkpt>
      <trkpt lat="47.01153" lon="-0.884">
        <ele>137</ele>
        <time>2023-05-08T19:52:31Z</time>
      </trkpt>
      <trkpt lat="47.01133" lon="-0.88352">
        <ele>136</ele>
        <time>2023-05-08T19:52:38Z</time>
      </trkpt>
      <trkpt lat="47.01143" lon="-0.88343">
        <ele>136</ele>
        <time>2023-05-08T19:52:40Z</time>
      </trkpt>
      <trkpt lat="47.0133" lon="-0.88248">
        <ele>133</ele>
        <time>2023-05-08T19:53:16Z</time>
      </trkpt>
      <trkpt lat="47.0133" lon="-0.88248">
        <ele>133</ele>
        <time>2023-05-08T19:53:16Z</time>
      </trkpt>
      <trkpt lat="47.01347" lon="-0.88235">
        <ele>133</ele>
        <time>2023-05-08T19:53:19Z</time>
      </trkpt>
      <trkpt lat="47.0136" lon="-0.88221">
        <ele>133</ele>
        <time>2023-05-08T19:53:22Z</time>
      </trkpt>
      <trkpt lat="47.01381" lon="-0.88187">
        <ele>132</ele>
        <time>2023-05-08T19:53:27Z</time>
      </trkpt>
      <trkpt lat="47.01414" lon="-0.88109">
        <ele>130</ele>
        <time>2023-05-08T19:53:39Z</time>
      </trkpt>
      <trkpt lat="47.01426" lon="-0.88066">
        <ele>129</ele>
        <time>2023-05-08T19:53:44Z</time>
      </trkpt>
      <trkpt lat="47.0143" lon="-0.88044">
        <ele>128</ele>
        <time>2023-05-08T19:53:47Z</time>
      </trkpt>
      <trkpt lat="47.01454" lon="-0.87754">
        <ele>122</ele>
        <time>2023-05-08T19:54:22Z</time>
      </trkpt>
      <trkpt lat="47.01453" lon="-0.87718">
        <ele>122</ele>
        <time>2023-05-08T19:54:27Z</time>
      </trkpt>
      <trkpt lat="47.01447" lon="-0.87681">
        <ele>121</ele>
        <time>2023-05-08T19:54:31Z</time>
      </trkpt>
      <trkpt lat="47.01437" lon="-0.87651">
        <ele>121</ele>
        <time>2023-05-08T19:54:35Z</time>
      </trkpt>
      <trkpt lat="47.01373" lon="-0.87477">
        <ele>116</ele>
        <time>2023-05-08T19:54:59Z</time>
      </trkpt>
      <trkpt lat="47.01364" lon="-0.87441">
        <ele>116</ele>
        <time>2023-05-08T19:55:04Z</time>
      </trkpt>
      <trkpt lat="47.0136" lon="-0.87418">
        <ele>116</ele>
        <time>2023-05-08T19:55:07Z</time>
      </trkpt>
      <trkpt lat="47.01357" lon="-0.87391">
        <ele>117</ele>
        <time>2023-05-08T19:55:10Z</time>
      </trkpt>
      <trkpt lat="47.01357" lon="-0.87361">
        <ele>117</ele>
        <time>2023-05-08T19:55:14Z</time>
      </trkpt>
      <trkpt lat="47.01359" lon="-0.8733">
        <ele>118</ele>
        <time>2023-05-08T19:55:18Z</time>
      </trkpt>
      <trkpt lat="47.01389" lon="-0.87079">
        <ele>124</ele>
        <time>2023-05-08T19:55:49Z</time>
      </trkpt>
      <trkpt lat="47.01389" lon="-0.87044">
        <ele>124</ele>
        <time>2023-05-08T19:55:53Z</time>
      </trkpt>
      <trkpt lat="47.0138" lon="-0.86935">
        <ele>125</ele>
        <time>2023-05-08T19:56:06Z</time>
      </trkpt>
      <trkpt lat="47.01372" lon="-0.86868">
        <ele>125</ele>
        <time>2023-05-08T19:56:14Z</time>
      </trkpt>
      <trkpt lat="47.0136" lon="-0.86821">
        <ele>126</ele>
        <time>2023-05-08T19:56:21Z</time>
      </trkpt>
      <trkpt lat="47.01346" lon="-0.86773">
        <ele>126</ele>
        <time>2023-05-08T19:56:27Z</time>
      </trkpt>
      <trkpt lat="47.01303" lon="-0.86647">
        <ele>128</ele>
        <time>2023-05-08T19:56:44Z</time>
      </trkpt>
      <trkpt lat="47.01283" lon="-0.8657">
        <ele>129</ele>
        <time>2023-05-08T19:56:54Z</time>
      </trkpt>
      <trkpt lat="47.01262" lon="-0.86517">
        <ele>129</ele>
        <time>2023-05-08T19:57:01Z</time>
      </trkpt>
      <trkpt lat="47.01182" lon="-0.86351">
        <ele>128</ele>
        <time>2023-05-08T19:57:26Z</time>
      </trkpt>
      <trkpt lat="47.01146" lon="-0.86289">
        <ele>127</ele>
        <time>2023-05-08T19:57:36Z</time>
      </trkpt>
      <trkpt lat="47.01122" lon="-0.86266">
        <ele>126</ele>
        <time>2023-05-08T19:57:41Z</time>
      </trkpt>
      <trkpt lat="47.01093" lon="-0.86255">
        <ele>126</ele>
        <time>2023-05-08T19:57:46Z</time>
      </trkpt>
      <trkpt lat="47.01077" lon="-0.86236">
        <ele>125</ele>
        <time>2023-05-08T19:57:50Z</time>
      </trkpt>
      <trkpt lat="47.01068" lon="-0.8621">
        <ele>124</ele>
        <time>2023-05-08T19:57:54Z</time>
      </trkpt>
      <trkpt lat="47.01063" lon="-0.86162">
        <ele>121</ele>
        <time>2023-05-08T19:57:59Z</time>
      </trkpt>
      <trkpt lat="47.01054" lon="-0.8609">
        <ele>119</ele>
        <time>2023-05-08T19:58:08Z</time>
      </trkpt>
      <trkpt lat="47.01049" lon="-0.86064">
        <ele>118</ele>
        <time>2023-05-08T19:58:12Z</time>
      </trkpt>
      <trkpt lat="47.01042" lon="-0.86038">
        <ele>117</ele>
        <time>2023-05-08T19:58:15Z</time>
      </trkpt>
      <trkpt lat="47.01025" lon="-0.85996">
        <ele>116</ele>
        <time>2023-05-08T19:58:21Z</time>
      </trkpt>
      <trkpt lat="47.01005" lon="-0.85963">
        <ele>116</ele>
        <time>2023-05-08T19:58:26Z</time>
      </trkpt>
      <trkpt lat="47.00982" lon="-0.85939">
        <ele>117</ele>
        <time>2023-05-08T19:58:31Z</time>
      </trkpt>
      <trkpt lat="47.00971" lon="-0.85925">
        <ele>117</ele>
        <time>2023-05-08T19:58:34Z</time>
      </trkpt>
      <trkpt lat="47.0094" lon="-0.85861">
        <ele>119</ele>
        <time>2023-05-08T19:58:43Z</time>
      </trkpt>
      <trkpt lat="47.00922" lon="-0.85834">
        <ele>120</ele>
        <time>2023-05-08T19:58:48Z</time>
      </trkpt>
      <trkpt lat="47.00754" lon="-0.85616">
        <ele>125</ele>
        <time>2023-05-08T19:59:28Z</time>
      </trkpt>
      <trkpt lat="47.00728" lon="-0.8558">
        <ele>127</ele>
        <time>2023-05-08T19:59:34Z</time>
      </trkpt>
      <trkpt lat="47.007" lon="-0.85535">
        <ele>129</ele>
        <time>2023-05-08T19:59:42Z</time>
      </trkpt>
      <trkpt lat="47.00676" lon="-0.85503">
        <ele>130</ele>
        <time>2023-05-08T19:59:47Z</time>
      </trkpt>
      <trkpt lat="47.00713" lon="-0.85463">
        <ele>129</ele>
        <time>2023-05-08T19:59:56Z</time>
      </trkpt>
      <trkpt lat="47.00727" lon="-0.8545">
        <ele>129</ele>
        <time>2023-05-08T19:59:59Z</time>
      </trkpt>
      <trkpt lat="47.00727" lon="-0.8545">
        <ele>129</ele>
        <time>2023-05-08T19:59:59Z</time>
      </trkpt>
      <trkpt lat="47.00746" lon="-0.85441">
        <ele>128</ele>
        <time>2023-05-08T20:00:02Z</time>
      </trkpt>
      <trkpt lat="47.00768" lon="-0.85435">
        <ele>127</ele>
        <time>2023-05-08T20:00:06Z</time>
      </trkpt>
      <trkpt lat="47.00787" lon="-0.85434">
        <ele>126</ele>
        <time>2023-05-08T20:00:10Z</time>
      </trkpt>
      <trkpt lat="47.00849" lon="-0.85445">
        <ele>122</ele>
        <time>2023-05-08T20:00:21Z</time>
      </trkpt>
      <trkpt lat="47.00863" lon="-0.85441">
        <ele>121</ele>
        <time>2023-05-08T20:00:23Z</time>
      </trkpt>
      <trkpt lat="47.00868" lon="-0.85433">
        <ele>121</ele>
        <time>2023-05-08T20:00:24Z</time>
      </trkpt>
      <trkpt lat="47.00879" lon="-0.85437">
        <ele>120</ele>
        <time>2023-05-08T20:00:26Z</time>
      </trkpt>
      <trkpt lat="47.00887" lon="-0.85434">
        <ele>119</ele>
        <time>2023-05-08T20:00:28Z</time>
      </trkpt>
      <trkpt lat="47.00966" lon="-0.85376">
        <ele>112</ele>
        <time>2023-05-08T20:00:44Z</time>
      </trkpt>
      <trkpt lat="47.00977" lon="-0.85357">
        <ele>111</ele>
        <time>2023-05-08T20:00:47Z</time>
      </trkpt>
      <trkpt lat="47.00981" lon="-0.85348">
        <ele>111</ele>
        <time>2023-05-08T20:00:48Z</time>
      </trkpt>
      <trkpt lat="47.0099" lon="-0.85291">
        <ele>106</ele>
        <time>2023-05-08T20:00:55Z</time>
      </trkpt>
      <trkpt lat="47.0099" lon="-0.85283">
        <ele>105</ele>
        <time>2023-05-08T20:00:56Z</time>
      </trkpt>
      <trkpt lat="47.01175" lon="-0.85261">
        <ele>95</ele>
        <time>2023-05-08T20:01:29Z</time>
      </trkpt>
      <trkpt lat="47.01203" lon="-0.85255">
        <ele>95</ele>
        <time>2023-05-08T20:01:34Z</time>
      </trkpt>
      <trkpt lat="47.01249" lon="-0.85235">
        <ele>95</ele>
        <time>2023-05-08T20:01:43Z</time>
      </trkpt>
      <trkpt lat="47.01308" lon="-0.85197">
        <ele>95</ele>
        <time>2023-05-08T20:01:54Z</time>
      </trkpt>
      <trkpt lat="47.01378" lon="-0.85147">
        <ele>94</ele>
        <time>2023-05-08T20:02:08Z</time>
      </trkpt>
      <trkpt lat="47.01414" lon="-0.85125">
        <ele>93</ele>
        <time>2023-05-08T20:02:15Z</time>
      </trkpt>
      <trkpt lat="47.0146" lon="-0.85102">
        <ele>93</ele>
        <time>2023-05-08T20:02:24Z</time>
      </trkpt>
      <trkpt lat="47.01572" lon="-0.85064">
        <ele>92</ele>
        <time>2023-05-08T20:02:44Z</time>
      </trkpt>
      <trkpt lat="47.01806" lon="-0.84991">
        <ele>87</ele>
        <time>2023-05-08T20:03:27Z</time>
      </trkpt>
      <trkpt lat="47.01837" lon="-0.84984">
        <ele>87</ele>
        <time>2023-05-08T20:03:32Z</time>
      </trkpt>
      <trkpt lat="47.01884" lon="-0.84981">
        <ele>86</ele>
        <time>2023-05-08T20:03:41Z</time>
      </trkpt>
      <trkpt lat="47.01933" lon="-0.84985">
        <ele>85</ele>
        <time>2023-05-08T20:03:49Z</time>
      </trkpt>
      <trkpt lat="47.02155" lon="-0.85052">
        <ele>81</ele>
        <time>2023-05-08T20:04:30Z</time>
      </trkpt>
      <trkpt lat="47.02214" lon="-0.85078">
        <ele>79</ele>
        <time>2023-05-08T20:04:41Z</time>
      </trkpt>
      <trkpt lat="47.02264" lon="-0.85109">
        <ele>80</ele>
        <time>2023-05-08T20:04:50Z</time>
      </trkpt>
      <trkpt lat="47.02312" lon="-0.85151">
        <ele>80</ele>
        <time>2023-05-08T20:05:00Z</time>
      </trkpt>
      <trkpt lat="47.02353" lon="-0.85197">
        <ele>80</ele>
        <time>2023-05-08T20:05:09Z</time>
      </trkpt>
      <trkpt lat="47.02395" lon="-0.85255">
        <ele>79</ele>
        <time>2023-05-08T20:05:20Z</time>
      </trkpt>
      <trkpt lat="47.02477" lon="-0.85399">
        <ele>78</ele>
        <time>2023-05-08T20:05:42Z</time>
      </trkpt>
      <trkpt lat="47.02493" lon="-0.85386">
        <ele>77</ele>
        <time>2023-05-08T20:05:46Z</time>
      </trkpt>
      <trkpt lat="47.02586" lon="-0.85347">
        <ele>78</ele>
        <time>2023-05-08T20:06:03Z</time>
      </trkpt>
      <trkpt lat="47.02579" lon="-0.8533">
        <ele>78</ele>
        <time>2023-05-08T20:06:05Z</time>
      </trkpt>
      <trkpt lat="47.02591" lon="-0.85326">
        <ele>79</ele>
        <time>2023-05-08T20:06:07Z</time>
      </trkpt>
      <trkpt lat="47.02597" lon="-0.8533">
        <ele>79</ele>
        <time>2023-05-08T20:06:09Z</time>
      </trkpt>
      <trkpt lat="47.02607" lon="-0.85329">
        <ele>80</ele>
        <time>2023-05-08T20:06:10Z</time>
      </trkpt>
      <trkpt lat="47.02702" lon="-0.85307">
        <ele>86</ele>
        <time>2023-05-08T20:06:28Z</time>
      </trkpt>
      <trkpt lat="47.0272" lon="-0.85297">
        <ele>87</ele>
        <time>2023-05-08T20:06:31Z</time>
      </trkpt>
      <trkpt lat="47.02734" lon="-0.85285">
        <ele>88</ele>
        <time>2023-05-08T20:06:34Z</time>
      </trkpt>
      <trkpt lat="47.02768" lon="-0.8524">
        <ele>91</ele>
        <time>2023-05-08T20:06:42Z</time>
      </trkpt>
      <trkpt lat="47.0278" lon="-0.85228">
        <ele>91</ele>
        <time>2023-05-08T20:06:45Z</time>
      </trkpt>
      <trkpt lat="47.02804" lon="-0.85218">
        <ele>92</ele>
        <time>2023-05-08T20:06:49Z</time>
      </trkpt>
      <trkpt lat="47.02843" lon="-0.85207">
        <ele>92</ele>
        <time>2023-05-08T20:06:56Z</time>
      </trkpt>
      <trkpt lat="47.02885" lon="-0.85188">
        <ele>93</ele>
        <time>2023-05-08T20:07:04Z</time>
      </trkpt>
      <trkpt lat="47.02933" lon="-0.85187">
        <ele>92</ele>
        <time>2023-05-08T20:07:12Z</time>
      </trkpt>
      <trkpt lat="47.03041" lon="-0.852">
        <ele>94</ele>
        <time>2023-05-08T20:07:32Z</time>
      </trkpt>
      <trkpt lat="47.03059" lon="-0.85198">
        <ele>95</ele>
        <time>2023-05-08T20:07:35Z</time>
      </trkpt>
      <trkpt lat="47.03115" lon="-0.85185">
        <ele>97</ele>
        <time>2023-05-08T20:07:45Z</time>
      </trkpt>
      <trkpt lat="47.03141" lon="-0.85184">
        <ele>98</ele>
        <time>2023-05-08T20:07:50Z</time>
      </trkpt>
      <trkpt lat="47.03185" lon="-0.85187">
        <ele>99</ele>
        <time>2023-05-08T20:07:57Z</time>
      </trkpt>
      <trkpt lat="47.0319" lon="-0.85204">
        <ele>98</ele>
        <time>2023-05-08T20:08:00Z</time>
      </trkpt>
      <trkpt lat="47.03218" lon="-0.85218">
        <ele>98</ele>
        <time>2023-05-08T20:08:05Z</time>
      </trkpt>
      <trkpt lat="47.03257" lon="-0.85234">
        <ele>97</ele>
        <time>2023-05-08T20:08:12Z</time>
      </trkpt>
      <trkpt lat="47.0329" lon="-0.85254">
        <ele>97</ele>
        <time>2023-05-08T20:08:19Z</time>
      </trkpt>
      <trkpt lat="47.03295" lon="-0.85248">
        <ele>98</ele>
        <time>2023-05-08T20:08:20Z</time>
      </trkpt>
      <trkpt lat="47.03353" lon="-0.853">
        <ele>96</ele>
        <time>2023-05-08T20:08:32Z</time>
      </trkpt>
      <trkpt lat="47.03432" lon="-0.85394">
        <ele>94</ele>
        <time>2023-05-08T20:08:50Z</time>
      </trkpt>
      <trkpt lat="47.03432" lon="-0.85394">
        <ele>94</ele>
        <time>2023-05-08T20:08:50Z</time>
      </trkpt>
      <trkpt lat="47.03461" lon="-0.85425">
        <ele>94</ele>
        <time>2023-05-08T20:08:56Z</time>
      </trkpt>
      <trkpt lat="47.03541" lon="-0.85527">
        <ele>93</ele>
        <time>2023-05-08T20:09:15Z</time>
      </trkpt>
      <trkpt lat="47.03561" lon="-0.85546">
        <ele>92</ele>
        <time>2023-05-08T20:09:19Z</time>
      </trkpt>
      <trkpt lat="47.0361" lon="-0.85583">
        <ele>91</ele>
        <time>2023-05-08T20:09:29Z</time>
      </trkpt>
      <trkpt lat="47.03671" lon="-0.85623">
        <ele>92</ele>
        <time>2023-05-08T20:09:41Z</time>
      </trkpt>
      <trkpt lat="47.03721" lon="-0.85664">
        <ele>93</ele>
        <time>2023-05-08T20:09:51Z</time>
      </trkpt>
      <trkpt lat="47.03779" lon="-0.85694">
        <ele>94</ele>
        <time>2023-05-08T20:10:02Z</time>
      </trkpt>
      <trkpt lat="47.03858" lon="-0.85748">
        <ele>91</ele>
        <time>2023-05-08T20:10:18Z</time>
      </trkpt>
      <trkpt lat="47.03878" lon="-0.85755">
        <ele>90</ele>
        <time>2023-05-08T20:10:21Z</time>
      </trkpt>
      <trkpt lat="47.03896" lon="-0.85755">
        <ele>90</ele>
        <time>2023-05-08T20:10:25Z</time>
      </trkpt>
      <trkpt lat="47.0392" lon="-0.8575">
        <ele>89</ele>
        <time>2023-05-08T20:10:29Z</time>
      </trkpt>
      <trkpt lat="47.03989" lon="-0.85713">
        <ele>90</ele>
        <time>2023-05-08T20:10:42Z</time>
      </trkpt>
      <trkpt lat="47.04011" lon="-0.85709">
        <ele>90</ele>
        <time>2023-05-08T20:10:46Z</time>
      </trkpt>
      <trkpt lat="47.04061" lon="-0.85715">
        <ele>89</ele>
        <time>2023-05-08T20:10:55Z</time>
      </trkpt>
      <trkpt lat="47.04096" lon="-0.85724">
        <ele>89</ele>
        <time>2023-05-08T20:11:01Z</time>
      </trkpt>
      <trkpt lat="47.04135" lon="-0.85738">
        <ele>88</ele>
        <time>2023-05-08T20:11:08Z</time>
      </trkpt>
      <trkpt lat="47.04157" lon="-0.85743">
        <ele>87</ele>
        <time>2023-05-08T20:11:12Z</time>
      </trkpt>
      <trkpt lat="47.04172" lon="-0.85741">
        <ele>88</ele>
        <time>2023-05-08T20:11:15Z</time>
      </trkpt>
      <trkpt lat="47.04202" lon="-0.85725">
        <ele>89</ele>
        <time>2023-05-08T20:11:21Z</time>
      </trkpt>
      <trkpt lat="47.04214" lon="-0.85724">
        <ele>89</ele>
        <time>2023-05-08T20:11:23Z</time>
      </trkpt>
      <trkpt lat="47.04227" lon="-0.8573">
        <ele>89</ele>
        <time>2023-05-08T20:11:25Z</time>
      </trkpt>
      <trkpt lat="47.04238" lon="-0.85743">
        <ele>89</ele>
        <time>2023-05-08T20:11:28Z</time>
      </trkpt>
      <trkpt lat="47.04282" lon="-0.85817">
        <ele>89</ele>
        <time>2023-05-08T20:11:40Z</time>
      </trkpt>
      <trkpt lat="47.04317" lon="-0.85874">
        <ele>88</ele>
        <time>2023-05-08T20:11:49Z</time>
      </trkpt>
      <trkpt lat="47.04342" lon="-0.85908">
        <ele>88</ele>
        <time>2023-05-08T20:11:55Z</time>
      </trkpt>
      <trkpt lat="47.04368" lon="-0.85939">
        <ele>88</ele>
        <time>2023-05-08T20:12:01Z</time>
      </trkpt>
      <trkpt lat="47.0439" lon="-0.8596">
        <ele>88</ele>
        <time>2023-05-08T20:12:06Z</time>
      </trkpt>
      <trkpt lat="47.04424" lon="-0.85984">
        <ele>88</ele>
        <time>2023-05-08T20:12:12Z</time>
      </trkpt>
      <trkpt lat="47.04452" lon="-0.85998">
        <ele>86</ele>
        <time>2023-05-08T20:12:18Z</time>
      </trkpt>
      <trkpt lat="47.04472" lon="-0.86005">
        <ele>85</ele>
        <time>2023-05-08T20:12:21Z</time>
      </trkpt>
      <trkpt lat="47.04506" lon="-0.86009">
        <ele>85</ele>
        <time>2023-05-08T20:12:27Z</time>
      </trkpt>
      <trkpt lat="47.04518" lon="-0.86016">
        <ele>85</ele>
        <time>2023-05-08T20:12:30Z</time>
      </trkpt>
      <trkpt lat="47.04538" lon="-0.86038">
        <ele>84</ele>
        <time>2023-05-08T20:12:34Z</time>
      </trkpt>
      <trkpt lat="47.04583" lon="-0.86097">
        <ele>84</ele>
        <time>2023-05-08T20:12:45Z</time>
      </trkpt>
      <trkpt lat="47.04599" lon="-0.86114">
        <ele>83</ele>
        <time>2023-05-08T20:12:48Z</time>
      </trkpt>
      <trkpt lat="47.0462" lon="-0.86126">
        <ele>83</ele>
        <time>2023-05-08T20:12:52Z</time>
      </trkpt>
      <trkpt lat="47.04712" lon="-0.86152">
        <ele>84</ele>
        <time>2023-05-08T20:13:09Z</time>
      </trkpt>
      <trkpt lat="47.04727" lon="-0.86151">
        <ele>84</ele>
        <time>2023-05-08T20:13:12Z</time>
      </trkpt>
      <trkpt lat="47.04735" lon="-0.86163">
        <ele>84</ele>
        <time>2023-05-08T20:13:14Z</time>
      </trkpt>
      <trkpt lat="47.0476" lon="-0.86213">
        <ele>83</ele>
        <time>2023-05-08T20:13:21Z</time>
      </trkpt>
      <trkpt lat="47.04779" lon="-0.86246">
        <ele>82</ele>
        <time>2023-05-08T20:13:26Z</time>
      </trkpt>
      <trkpt lat="47.04814" lon="-0.863">
        <ele>82</ele>
        <time>2023-05-08T20:13:35Z</time>
      </trkpt>
      <trkpt lat="47.04823" lon="-0.86319">
        <ele>82</ele>
        <time>2023-05-08T20:13:38Z</time>
      </trkpt>
      <trkpt lat="47.04841" lon="-0.86378">
        <ele>81</ele>
        <time>2023-05-08T20:13:46Z</time>
      </trkpt>
      <trkpt lat="47.04921" lon="-0.86591">
        <ele>77</ele>
        <time>2023-05-08T20:14:16Z</time>
      </trkpt>
      <trkpt lat="47.04926" lon="-0.86598">
        <ele>78</ele>
        <time>2023-05-08T20:14:17Z</time>
      </trkpt>
      <trkpt lat="47.04933" lon="-0.86601">
        <ele>78</ele>
        <time>2023-05-08T20:14:18Z</time>
      </trkpt>
      <trkpt lat="47.04954" lon="-0.86488">
        <ele>81</ele>
        <time>2023-05-08T20:14:32Z</time>
      </trkpt>
      <trkpt lat="47.04984" lon="-0.86375">
        <ele>83</ele>
        <time>2023-05-08T20:14:47Z</time>
      </trkpt>
      <trkpt lat="47.04988" lon="-0.86346">
        <ele>84</ele>
        <time>2023-05-08T20:14:51Z</time>
      </trkpt>
      <trkpt lat="47.04988" lon="-0.86327">
        <ele>85</ele>
        <time>2023-05-08T20:14:53Z</time>
      </trkpt>
      <trkpt lat="47.04988" lon="-0.86327">
        <ele>85</ele>
        <time>2023-05-08T20:14:53Z</time>
      </trkpt>
      <trkpt lat="47.04985" lon="-0.86302">
        <ele>85</ele>
        <time>2023-05-08T20:14:56Z</time>
      </trkpt>
      <trkpt lat="47.0498" lon="-0.86283">
        <ele>86</ele>
        <time>2023-05-08T20:14:58Z</time>
      </trkpt>
      <trkpt lat="47.04911" lon="-0.86114">
        <ele>88</ele>
        <time>2023-05-08T20:15:22Z</time>
      </trkpt>
      <trkpt lat="47.04752" lon="-0.85736">
        <ele>97</ele>
        <time>2023-05-08T20:16:16Z</time>
      </trkpt>
      <trkpt lat="47.04736" lon="-0.85705">
        <ele>98</ele>
        <time>2023-05-08T20:16:21Z</time>
      </trkpt>
      <trkpt lat="47.04718" lon="-0.85674">
        <ele>100</ele>
        <time>2023-05-08T20:16:26Z</time>
      </trkpt>
      <trkpt lat="47.04708" lon="-0.85649">
        <ele>100</ele>
        <time>2023-05-08T20:16:29Z</time>
      </trkpt>
      <trkpt lat="47.047" lon="-0.85625">
        <ele>101</ele>
        <time>2023-05-08T20:16:33Z</time>
      </trkpt>
      <trkpt lat="47.04693" lon="-0.85582">
        <ele>101</ele>
        <time>2023-05-08T20:16:38Z</time>
      </trkpt>
      <trkpt lat="47.04692" lon="-0.85571">
        <ele>102</ele>
        <time>2023-05-08T20:16:39Z</time>
      </trkpt>
      <trkpt lat="47.04694" lon="-0.85547">
        <ele>102</ele>
        <time>2023-05-08T20:16:42Z</time>
      </trkpt>
      <trkpt lat="47.04686" lon="-0.85507">
        <ele>103</ele>
        <time>2023-05-08T20:16:47Z</time>
      </trkpt>
      <trkpt lat="47.04683" lon="-0.85494">
        <ele>104</ele>
        <time>2023-05-08T20:16:49Z</time>
      </trkpt>
      <trkpt lat="47.04668" lon="-0.85509">
        <ele>103</ele>
        <time>2023-05-08T20:16:52Z</time>
      </trkpt>
      <trkpt lat="47.04667" lon="-0.85498">
        <ele>103</ele>
        <time>2023-05-08T20:16:54Z</time>
      </trkpt>
      <trkpt lat="47.04672" lon="-0.85492">
        <ele>103</ele>
        <time>2023-05-08T20:16:55Z</time>
      </trkpt>
      <trkpt lat="47.04673" lon="-0.85488">
        <ele>104</ele>
        <time>2023-05-08T20:16:55Z</time>
      </trkpt>
      <trkpt lat="47.04645" lon="-0.85392">
        <ele>107</ele>
        <time>2023-05-08T20:17:08Z</time>
      </trkpt>
      <trkpt lat="47.0459" lon="-0.8523">
        <ele>113</ele>
        <time>2023-05-08T20:17:30Z</time>
      </trkpt>
      <trkpt lat="47.04589" lon="-0.85217">
        <ele>113</ele>
        <time>2023-05-08T20:17:31Z</time>
      </trkpt>
      <trkpt lat="47.04594" lon="-0.85196">
        <ele>114</ele>
        <time>2023-05-08T20:17:34Z</time>
      </trkpt>
      <trkpt lat="47.04628" lon="-0.85117">
        <ele>116</ele>
        <time>2023-05-08T20:17:45Z</time>
      </trkpt>
      <trkpt lat="47.0463" lon="-0.84967">
        <ele>118</ele>
        <time>2023-05-08T20:18:04Z</time>
      </trkpt>
      <trkpt lat="47.04637" lon="-0.84968">
        <ele>118</ele>
        <time>2023-05-08T20:18:05Z</time>
      </trkpt>
      <trkpt lat="47.04637" lon="-0.84827">
        <ele>119</ele>
        <time>2023-05-08T20:18:22Z</time>
      </trkpt>
      <trkpt lat="47.04681" lon="-0.84722">
        <ele>123</ele>
        <time>2023-05-08T20:18:37Z</time>
      </trkpt>
      <trkpt lat="47.04546" lon="-0.84574">
        <ele>123</ele>
        <time>2023-05-08T20:19:07Z</time>
      </trkpt>
      <trkpt lat="47.04546" lon="-0.84574">
        <ele>123</ele>
        <time>2023-05-08T20:19:07Z</time>
      </trkpt>
      <trkpt lat="47.04508" lon="-0.84527">
        <ele>123</ele>
        <time>2023-05-08T20:19:16Z</time>
      </trkpt>
      <trkpt lat="47.04465" lon="-0.84465">
        <ele>124</ele>
        <time>2023-05-08T20:19:26Z</time>
      </trkpt>
      <trkpt lat="47.04359" lon="-0.8429">
        <ele>124</ele>
        <time>2023-05-08T20:19:55Z</time>
      </trkpt>
      <trkpt lat="47.04433" lon="-0.84195">
        <ele>127</ele>
        <time>2023-05-08T20:20:12Z</time>
      </trkpt>
      <trkpt lat="47.04446" lon="-0.84176">
        <ele>128</ele>
        <time>2023-05-08T20:20:16Z</time>
      </trkpt>
      <trkpt lat="47.04457" lon="-0.84155">
        <ele>128</ele>
        <time>2023-05-08T20:20:19Z</time>
      </trkpt>
      <trkpt lat="47.04489" lon="-0.84074">
        <ele>126</ele>
        <time>2023-05-08T20:20:30Z</time>
      </trkpt>
      <trkpt lat="47.045" lon="-0.84052">
        <ele>126</ele>
        <time>2023-05-08T20:20:33Z</time>
      </trkpt>
      <trkpt lat="47.04513" lon="-0.84042">
        <ele>127</ele>
        <time>2023-05-08T20:20:36Z</time>
      </trkpt>
      <trkpt lat="47.04585" lon="-0.84014">
        <ele>129</ele>
        <time>2023-05-08T20:20:49Z</time>
      </trkpt>
      <trkpt lat="47.04605" lon="-0.84003">
        <ele>129</ele>
        <time>2023-05-08T20:20:53Z</time>
      </trkpt>
      <trkpt lat="47.04613" lon="-0.83997">
        <ele>129</ele>
        <time>2023-05-08T20:20:55Z</time>
      </trkpt>
      <trkpt lat="47.04641" lon="-0.83968">
        <ele>129</ele>
        <time>2023-05-08T20:21:01Z</time>
      </trkpt>
      <trkpt lat="47.04696" lon="-0.83911">
        <ele>129</ele>
        <time>2023-05-08T20:21:13Z</time>
      </trkpt>
      <trkpt lat="47.04711" lon="-0.83902">
        <ele>129</ele>
        <time>2023-05-08T20:21:16Z</time>
      </trkpt>
      <trkpt lat="47.04727" lon="-0.83903">
        <ele>129</ele>
        <time>2023-05-08T20:21:19Z</time>
      </trkpt>
      <trkpt lat="47.04742" lon="-0.83911">
        <ele>129</ele>
        <time>2023-05-08T20:21:21Z</time>
      </trkpt>
      <trkpt lat="47.04749" lon="-0.83919">
        <ele>129</ele>
        <time>2023-05-08T20:21:23Z</time>
      </trkpt>
      <trkpt lat="47.04768" lon="-0.83956">
        <ele>130</ele>
        <time>2023-05-08T20:21:29Z</time>
      </trkpt>
      <trkpt lat="47.04775" lon="-0.83967">
        <ele>130</ele>
        <time>2023-05-08T20:21:30Z</time>
      </trkpt>
      <trkpt lat="47.04782" lon="-0.83973">
        <ele>130</ele>
        <time>2023-05-08T20:21:32Z</time>
      </trkpt>
      <trkpt lat="47.04796" lon="-0.83981">
        <ele>130</ele>
        <time>2023-05-08T20:21:35Z</time>
      </trkpt>
      <trkpt lat="47.04805" lon="-0.83981">
        <ele>130</ele>
        <time>2023-05-08T20:21:36Z</time>
      </trkpt>
      <trkpt lat="47.04818" lon="-0.83979">
        <ele>130</ele>
        <time>2023-05-08T20:21:38Z</time>
      </trkpt>
      <trkpt lat="47.04965" lon="-0.83933">
        <ele>128</ele>
        <time>2023-05-08T20:22:05Z</time>
      </trkpt>
      <trkpt lat="47.04961" lon="-0.83825">
        <ele>129</ele>
        <time>2023-05-08T20:22:18Z</time>
      </trkpt>
      <trkpt lat="47.04958" lon="-0.83779">
        <ele>130</ele>
        <time>2023-05-08T20:22:24Z</time>
      </trkpt>
      <trkpt lat="47.04958" lon="-0.83779">
        <ele>130</ele>
        <time>2023-05-08T20:22:24Z</time>
      </trkpt>
      <trkpt lat="47.04953" lon="-0.83716">
        <ele>130</ele>
        <time>2023-05-08T20:22:32Z</time>
      </trkpt>
      <trkpt lat="47.04942" lon="-0.83625">
        <ele>131</ele>
        <time>2023-05-08T20:22:43Z</time>
      </trkpt>
      <trkpt lat="47.04922" lon="-0.8352">
        <ele>132</ele>
        <time>2023-05-08T20:22:56Z</time>
      </trkpt>
      <trkpt lat="47.04912" lon="-0.83477">
        <ele>132</ele>
        <time>2023-05-08T20:23:02Z</time>
      </trkpt>
      <trkpt lat="47.04847" lon="-0.83262">
        <ele>131</ele>
        <time>2023-05-08T20:23:30Z</time>
      </trkpt>
      <trkpt lat="47.04792" lon="-0.83092">
        <ele>131</ele>
        <time>2023-05-08T20:23:53Z</time>
      </trkpt>
      <trkpt lat="47.04772" lon="-0.83033">
        <ele>132</ele>
        <time>2023-05-08T20:24:01Z</time>
      </trkpt>
      <trkpt lat="47.04753" lon="-0.82982">
        <ele>133</ele>
        <time>2023-05-08T20:24:08Z</time>
      </trkpt>
      <trkpt lat="47.04728" lon="-0.82927">
        <ele>133</ele>
        <time>2023-05-08T20:24:16Z</time>
      </trkpt>
      <trkpt lat="47.04688" lon="-0.8285">
        <ele>132</ele>
        <time>2023-05-08T20:24:28Z</time>
      </trkpt>
      <trkpt lat="47.04618" lon="-0.82751">
        <ele>130</ele>
        <time>2023-05-08T20:24:45Z</time>
      </trkpt>
      <trkpt lat="47.0431" lon="-0.82371">
        <ele>104</ele>
        <time>2023-05-08T20:25:57Z</time>
      </trkpt>
      <trkpt lat="47.04175" lon="-0.82182">
        <ele>94</ele>
        <time>2023-05-08T20:26:30Z</time>
      </trkpt>
      <trkpt lat="47.04091" lon="-0.82026">
        <ele>92</ele>
        <time>2023-05-08T20:26:54Z</time>
      </trkpt>
      <trkpt lat="47.04001" lon="-0.81841">
        <ele>88</ele>
        <time>2023-05-08T20:27:21Z</time>
      </trkpt>
      <trkpt lat="47.03982" lon="-0.81795">
        <ele>88</ele>
        <time>2023-05-08T20:27:28Z</time>
      </trkpt>
      <trkpt lat="47.03963" lon="-0.81741">
        <ele>89</ele>
        <time>2023-05-08T20:27:35Z</time>
      </trkpt>
      <trkpt lat="47.03934" lon="-0.8165">
        <ele>91</ele>
        <time>2023-05-08T20:27:47Z</time>
      </trkpt>
      <trkpt lat="47.03849" lon="-0.81676">
        <ele>97</ele>
        <time>2023-05-08T20:28:03Z</time>
      </trkpt>
      <trkpt lat="47.03731" lon="-0.81704">
        <ele>103</ele>
        <time>2023-05-08T20:28:24Z</time>
      </trkpt>
      <trkpt lat="47.03655" lon="-0.81725">
        <ele>105</ele>
        <time>2023-05-08T20:28:38Z</time>
      </trkpt>
      <trkpt lat="47.0363" lon="-0.81735">
        <ele>105</ele>
        <time>2023-05-08T20:28:43Z</time>
      </trkpt>
      <trkpt lat="47.03625" lon="-0.81734">
        <ele>105</ele>
        <time>2023-05-08T20:28:43Z</time>
      </trkpt>
      <trkpt lat="47.0362" lon="-0.81728">
        <ele>105</ele>
        <time>2023-05-08T20:28:45Z</time>
      </trkpt>
      <trkpt lat="47.03616" lon="-0.81716">
        <ele>105</ele>
        <time>2023-05-08T20:28:46Z</time>
      </trkpt>
      <trkpt lat="47.03614" lon="-0.81702">
        <ele>105</ele>
        <time>2023-05-08T20:28:48Z</time>
      </trkpt>
      <trkpt lat="47.03614" lon="-0.81702">
        <ele>105</ele>
        <time>2023-05-08T20:28:48Z</time>
      </trkpt>
      <trkpt lat="47.03607" lon="-0.81665">
        <ele>105</ele>
        <time>2023-05-08T20:28:53Z</time>
      </trkpt>
      <trkpt lat="47.03574" lon="-0.81544">
        <ele>105</ele>
        <time>2023-05-08T20:29:08Z</time>
      </trkpt>
      <trkpt lat="47.03518" lon="-0.81328">
        <ele>107</ele>
        <time>2023-05-08T20:29:36Z</time>
      </trkpt>
      <trkpt lat="47.03508" lon="-0.81302">
        <ele>107</ele>
        <time>2023-05-08T20:29:40Z</time>
      </trkpt>
      <trkpt lat="47.03495" lon="-0.81279">
        <ele>108</ele>
        <time>2023-05-08T20:29:44Z</time>
      </trkpt>
      <trkpt lat="47.03406" lon="-0.81155">
        <ele>108</ele>
        <time>2023-05-08T20:30:06Z</time>
      </trkpt>
      <trkpt lat="47.03386" lon="-0.8113">
        <ele>108</ele>
        <time>2023-05-08T20:30:10Z</time>
      </trkpt>
      <trkpt lat="47.03364" lon="-0.81107">
        <ele>108</ele>
        <time>2023-05-08T20:30:15Z</time>
      </trkpt>
      <trkpt lat="47.03326" lon="-0.81076">
        <ele>108</ele>
        <time>2023-05-08T20:30:23Z</time>
      </trkpt>
      <trkpt lat="47.03291" lon="-0.81053">
        <ele>108</ele>
        <time>2023-05-08T20:30:30Z</time>
      </trkpt>
      <trkpt lat="47.03253" lon="-0.81032">
        <ele>107</ele>
        <time>2023-05-08T20:30:37Z</time>
      </trkpt>
      <trkpt lat="47.03117" lon="-0.80949">
        <ele>108</ele>
        <time>2023-05-08T20:31:03Z</time>
      </trkpt>
      <trkpt lat="47.03092" lon="-0.80929">
        <ele>109</ele>
        <time>2023-05-08T20:31:08Z</time>
      </trkpt>
      <trkpt lat="47.02975" lon="-0.80787">
        <ele>113</ele>
        <time>2023-05-08T20:31:35Z</time>
      </trkpt>
      <trkpt lat="47.02949" lon="-0.80765">
        <ele>115</ele>
        <time>2023-05-08T20:31:40Z</time>
      </trkpt>
      <trkpt lat="47.02791" lon="-0.80667">
        <ele>124</ele>
        <time>2023-05-08T20:32:11Z</time>
      </trkpt>
      <trkpt lat="47.02675" lon="-0.806">
        <ele>125</ele>
        <time>2023-05-08T20:32:33Z</time>
      </trkpt>
      <trkpt lat="47.02648" lon="-0.80576">
        <ele>125</ele>
        <time>2023-05-08T20:32:39Z</time>
      </trkpt>
      <trkpt lat="47.02524" lon="-0.80446">
        <ele>127</ele>
        <time>2023-05-08T20:33:06Z</time>
      </trkpt>
      <trkpt lat="47.02456" lon="-0.80366">
        <ele>129</ele>
        <time>2023-05-08T20:33:21Z</time>
      </trkpt>
      <trkpt lat="47.02299" lon="-0.80154">
        <ele>131</ele>
        <time>2023-05-08T20:33:59Z</time>
      </trkpt>
      <trkpt lat="47.02144" lon="-0.79963">
        <ele>128</ele>
        <time>2023-05-08T20:34:35Z</time>
      </trkpt>
      <trkpt lat="47.02126" lon="-0.79931">
        <ele>127</ele>
        <time>2023-05-08T20:34:40Z</time>
      </trkpt>
      <trkpt lat="47.02117" lon="-0.79898">
        <ele>127</ele>
        <time>2023-05-08T20:34:45Z</time>
      </trkpt>
      <trkpt lat="47.02068" lon="-0.7958">
        <ele>130</ele>
        <time>2023-05-08T20:35:24Z</time>
      </trkpt>
      <trkpt lat="47.02046" lon="-0.79465">
        <ele>128</ele>
        <time>2023-05-08T20:35:39Z</time>
      </trkpt>
      <trkpt lat="47.02037" lon="-0.79428">
        <ele>128</ele>
        <time>2023-05-08T20:35:44Z</time>
      </trkpt>
      <trkpt lat="47.01982" lon="-0.79233">
        <ele>124</ele>
        <time>2023-05-08T20:36:09Z</time>
      </trkpt>
      <trkpt lat="47.01919" lon="-0.79002">
        <ele>122</ele>
        <time>2023-05-08T20:36:39Z</time>
      </trkpt>
      <trkpt lat="47.0174" lon="-0.78311">
        <ele>129</ele>
        <time>2023-05-08T20:38:09Z</time>
      </trkpt>
      <trkpt lat="47.01571" lon="-0.7765">
        <ele>125</ele>
        <time>2023-05-08T20:39:35Z</time>
      </trkpt>
      <trkpt lat="47.0145" lon="-0.77156">
        <ele>117</ele>
        <time>2023-05-08T20:40:38Z</time>
      </trkpt>
      <trkpt lat="47.01431" lon="-0.77085">
        <ele>115</ele>
        <time>2023-05-08T20:40:48Z</time>
      </trkpt>
      <trkpt lat="47.01428" lon="-0.77062">
        <ele>115</ele>
        <time>2023-05-08T20:40:50Z</time>
      </trkpt>
      <trkpt lat="47.01427" lon="-0.77037">
        <ele>116</ele>
        <time>2023-05-08T20:40:53Z</time>
      </trkpt>
      <trkpt lat="47.01431" lon="-0.76775">
        <ele>116</ele>
        <time>2023-05-08T20:41:25Z</time>
      </trkpt>
      <trkpt lat="47.01424" lon="-0.76672">
        <ele>115</ele>
        <time>2023-05-08T20:41:38Z</time>
      </trkpt>
      <trkpt lat="47.01425" lon="-0.76629">
        <ele>116</ele>
        <time>2023-05-08T20:41:43Z</time>
      </trkpt>
      <trkpt lat="47.01432" lon="-0.76509">
        <ele>120</ele>
        <time>2023-05-08T20:41:58Z</time>
      </trkpt>
      <trkpt lat="47.01441" lon="-0.76425">
        <ele>123</ele>
        <time>2023-05-08T20:42:08Z</time>
      </trkpt>
      <trkpt lat="47.01436" lon="-0.76407">
        <ele>124</ele>
        <time>2023-05-08T20:42:10Z</time>
      </trkpt>
      <trkpt lat="47.01357" lon="-0.76258">
        <ele>126</ele>
        <time>2023-05-08T20:42:33Z</time>
      </trkpt>
      <trkpt lat="47.0135" lon="-0.76239">
        <ele>126</ele>
        <time>2023-05-08T20:42:36Z</time>
      </trkpt>
      <trkpt lat="47.01342" lon="-0.76232">
        <ele>127</ele>
        <time>2023-05-08T20:42:37Z</time>
      </trkpt>
      <trkpt lat="47.01252" lon="-0.76062">
        <ele>129</ele>
        <time>2023-05-08T20:43:04Z</time>
      </trkpt>
      <trkpt lat="47.01241" lon="-0.76055">
        <ele>130</ele>
        <time>2023-05-08T20:43:06Z</time>
      </trkpt>
      <trkpt lat="47.01224" lon="-0.76055">
        <ele>130</ele>
        <time>2023-05-08T20:43:09Z</time>
      </trkpt>
      <trkpt lat="47.01206" lon="-0.76051">
        <ele>131</ele>
        <time>2023-05-08T20:43:12Z</time>
      </trkpt>
      <trkpt lat="47.01101" lon="-0.75996">
        <ele>136</ele>
        <time>2023-05-08T20:43:32Z</time>
      </trkpt>
      <trkpt lat="47.01066" lon="-0.75984">
        <ele>138</ele>
        <time>2023-05-08T20:43:38Z</time>
      </trkpt>
      <trkpt lat="47.01042" lon="-0.75981">
        <ele>138</ele>
        <time>2023-05-08T20:43:42Z</time>
      </trkpt>
      <trkpt lat="47.01017" lon="-0.75983">
        <ele>139</ele>
        <time>2023-05-08T20:43:47Z</time>
      </trkpt>
      <trkpt lat="47.0099" lon="-0.75991">
        <ele>140</ele>
        <time>2023-05-08T20:43:52Z</time>
      </trkpt>
      <trkpt lat="47.00924" lon="-0.7602">
        <ele>140</ele>
        <time>2023-05-08T20:44:04Z</time>
      </trkpt>
      <trkpt lat="47.00905" lon="-0.76031">
        <ele>140</ele>
        <time>2023-05-08T20:44:08Z</time>
      </trkpt>
      <trkpt lat="47.00864" lon="-0.76047">
        <ele>140</ele>
        <time>2023-05-08T20:44:15Z</time>
      </trkpt>
      <trkpt lat="47.00841" lon="-0.76052">
        <ele>139</ele>
        <time>2023-05-08T20:44:19Z</time>
      </trkpt>
      <trkpt lat="47.00762" lon="-0.76056">
        <ele>138</ele>
        <time>2023-05-08T20:44:33Z</time>
      </trkpt>
      <trkpt lat="47.0063" lon="-0.76042">
        <ele>137</ele>
        <time>2023-05-08T20:44:57Z</time>
      </trkpt>
      <trkpt lat="47.0062" lon="-0.76089">
        <ele>137</ele>
        <time>2023-05-08T20:45:03Z</time>
      </trkpt>
      <trkpt lat="47.00605" lon="-0.76135">
        <ele>136</ele>
        <time>2023-05-08T20:45:09Z</time>
      </trkpt>
      <trkpt lat="47.00529" lon="-0.76287">
        <ele>132</ele>
        <time>2023-05-08T20:45:32Z</time>
      </trkpt>
      <trkpt lat="47.00493" lon="-0.76368">
        <ele>129</ele>
        <time>2023-05-08T20:45:44Z</time>
      </trkpt>
      <trkpt lat="47.00451" lon="-0.76469">
        <ele>125</ele>
        <time>2023-05-08T20:45:58Z</time>
      </trkpt>
      <trkpt lat="47.00451" lon="-0.76469">
        <ele>125</ele>
        <time>2023-05-08T20:45:58Z</time>
      </trkpt>
      <trkpt lat="47.00362" lon="-0.76689">
        <ele>117</ele>
        <time>2023-05-08T20:46:29Z</time>
      </trkpt>
      <trkpt lat="47.00323" lon="-0.76779">
        <ele>113</ele>
        <time>2023-05-08T20:46:42Z</time>
      </trkpt>
      <trkpt lat="47.00305" lon="-0.76825">
        <ele>111</ele>
        <time>2023-05-08T20:46:49Z</time>
      </trkpt>
      <trkpt lat="47.00289" lon="-0.76856">
        <ele>110</ele>
        <time>2023-05-08T20:46:53Z</time>
      </trkpt>
      <trkpt lat="47.00247" lon="-0.76916">
        <ele>107</ele>
        <time>2023-05-08T20:47:04Z</time>
      </trkpt>
      <trkpt lat="47.0022" lon="-0.76957">
        <ele>108</ele>
        <time>2023-05-08T20:47:11Z</time>
      </trkpt>
      <trkpt lat="47.002" lon="-0.76996">
        <ele>108</ele>
        <time>2023-05-08T20:47:17Z</time>
      </trkpt>
      <trkpt lat="47.00188" lon="-0.77024">
        <ele>108</ele>
        <time>2023-05-08T20:47:21Z</time>
      </trkpt>
      <trkpt lat="47.00179" lon="-0.7706">
        <ele>109</ele>
        <time>2023-05-08T20:47:25Z</time>
      </trkpt>
      <trkpt lat="47.00171" lon="-0.77103">
        <ele>110</ele>
        <time>2023-05-08T20:47:31Z</time>
      </trkpt>
      <trkpt lat="47.00166" lon="-0.77163">
        <ele>111</ele>
        <time>2023-05-08T20:47:38Z</time>
      </trkpt>
      <trkpt lat="47.00167" lon="-0.77304">
        <ele>112</ele>
        <time>2023-05-08T20:47:55Z</time>
      </trkpt>
      <trkpt lat="47.00166" lon="-0.77482">
        <ele>112</ele>
        <time>2023-05-08T20:48:17Z</time>
      </trkpt>
      <trkpt lat="47.00168" lon="-0.77558">
        <ele>112</ele>
        <time>2023-05-08T20:48:26Z</time>
      </trkpt>
      <trkpt lat="47.00171" lon="-0.77603">
        <ele>112</ele>
        <time>2023-05-08T20:48:31Z</time>
      </trkpt>
      <trkpt lat="47.00192" lon="-0.77779">
        <ele>108</ele>
        <time>2023-05-08T20:48:53Z</time>
      </trkpt>
      <trkpt lat="47.00194" lon="-0.77821">
        <ele>108</ele>
        <time>2023-05-08T20:48:58Z</time>
      </trkpt>
      <trkpt lat="47.00191" lon="-0.77861">
        <ele>107</ele>
        <time>2023-05-08T20:49:03Z</time>
      </trkpt>
      <trkpt lat="47.00184" lon="-0.779">
        <ele>107</ele>
        <time>2023-05-08T20:49:08Z</time>
      </trkpt>
      <trkpt lat="47.00162" lon="-0.77955">
        <ele>106</ele>
        <time>2023-05-08T20:49:16Z</time>
      </trkpt>
      <trkpt lat="47.00124" lon="-0.78035">
        <ele>108</ele>
        <time>2023-05-08T20:49:28Z</time>
      </trkpt>
      <trkpt lat="47.00112" lon="-0.78063">
        <ele>110</ele>
        <time>2023-05-08T20:49:32Z</time>
      </trkpt>
      <trkpt lat="47.00102" lon="-0.78105">
        <ele>110</ele>
        <time>2023-05-08T20:49:37Z</time>
      </trkpt>
      <trkpt lat="47.00097" lon="-0.78149">
        <ele>109</ele>
        <time>2023-05-08T20:49:42Z</time>
      </trkpt>
      <trkpt lat="47.0009" lon="-0.78191">
        <ele>110</ele>
        <time>2023-05-08T20:49:48Z</time>
      </trkpt>
      <trkpt lat="47.0006" lon="-0.78273">
        <ele>115</ele>
        <time>2023-05-08T20:49:59Z</time>
      </trkpt>
      <trkpt lat="47.00058" lon="-0.78293">
        <ele>116</ele>
        <time>2023-05-08T20:50:01Z</time>
      </trkpt>
      <trkpt lat="47.00072" lon="-0.78546">
        <ele>119</ele>
        <time>2023-05-08T20:50:32Z</time>
      </trkpt>
      <trkpt lat="47.00078" lon="-0.78583">
        <ele>119</ele>
        <time>2023-05-08T20:50:37Z</time>
      </trkpt>
      <trkpt lat="47.00094" lon="-0.78653">
        <ele>117</ele>
        <time>2023-05-08T20:50:46Z</time>
      </trkpt>
      <trkpt lat="47.00105" lon="-0.78683">
        <ele>116</ele>
        <time>2023-05-08T20:50:50Z</time>
      </trkpt>
      <trkpt lat="47.00133" lon="-0.78734">
        <ele>114</ele>
        <time>2023-05-08T20:50:58Z</time>
      </trkpt>
      <trkpt lat="47.00197" lon="-0.78843">
        <ele>111</ele>
        <time>2023-05-08T20:51:15Z</time>
      </trkpt>
      <trkpt lat="47.00244" lon="-0.78942">
        <ele>108</ele>
        <time>2023-05-08T20:51:30Z</time>
      </trkpt>
      <trkpt lat="47.00268" lon="-0.79004">
        <ele>107</ele>
        <time>2023-05-08T20:51:39Z</time>
      </trkpt>
      <trkpt lat="47.00306" lon="-0.79122">
        <ele>108</ele>
        <time>2023-05-08T20:51:54Z</time>
      </trkpt>
      <trkpt lat="47.00351" lon="-0.7924">
        <ele>111</ele>
        <time>2023-05-08T20:52:11Z</time>
      </trkpt>
      <trkpt lat="47.00371" lon="-0.79277">
        <ele>113</ele>
        <time>2023-05-08T20:52:16Z</time>
      </trkpt>
      <trkpt lat="47.00415" lon="-0.79349">
        <ele>114</ele>
        <time>2023-05-08T20:52:28Z</time>
      </trkpt>
      <trkpt lat="47.00429" lon="-0.79376">
        <ele>113</ele>
        <time>2023-05-08T20:52:32Z</time>
      </trkpt>
      <trkpt lat="47.00447" lon="-0.79419">
        <ele>112</ele>
        <time>2023-05-08T20:52:38Z</time>
      </trkpt>
      <trkpt lat="47.00508" lon="-0.79615">
        <ele>111</ele>
        <time>2023-05-08T20:53:05Z</time>
      </trkpt>
      <trkpt lat="47.00533" lon="-0.79758">
        <ele>114</ele>
        <time>2023-05-08T20:53:22Z</time>
      </trkpt>
      <trkpt lat="47.0054" lon="-0.79811">
        <ele>115</ele>
        <time>2023-05-08T20:53:29Z</time>
      </trkpt>
      <trkpt lat="47.00537" lon="-0.79848">
        <ele>116</ele>
        <time>2023-05-08T20:53:34Z</time>
      </trkpt>
      <trkpt lat="47.00529" lon="-0.79877">
        <ele>116</ele>
        <time>2023-05-08T20:53:37Z</time>
      </trkpt>
      <trkpt lat="47.00302" lon="-0.80492">
        <ele>105</ele>
        <time>2023-05-08T20:55:02Z</time>
      </trkpt>
      <trkpt lat="47.00286" lon="-0.80538">
        <ele>103</ele>
        <time>2023-05-08T20:55:08Z</time>
      </trkpt>
      <trkpt lat="47.0028" lon="-0.80568">
        <ele>103</ele>
        <time>2023-05-08T20:55:12Z</time>
      </trkpt>
      <trkpt lat="47.00275" lon="-0.80605">
        <ele>103</ele>
        <time>2023-05-08T20:55:17Z</time>
      </trkpt>
      <trkpt lat="47.00263" lon="-0.80804">
        <ele>108</ele>
        <time>2023-05-08T20:55:41Z</time>
      </trkpt>
      <trkpt lat="47.00247" lon="-0.80972">
        <ele>112</ele>
        <time>2023-05-08T20:56:02Z</time>
      </trkpt>
      <trkpt lat="47.00246" lon="-0.81104">
        <ele>115</ele>
        <time>2023-05-08T20:56:18Z</time>
      </trkpt>
      <trkpt lat="47.00243" lon="-0.81172">
        <ele>118</ele>
        <time>2023-05-08T20:56:26Z</time>
      </trkpt>
      <trkpt lat="47.00222" lon="-0.81462">
        <ele>122</ele>
        <time>2023-05-08T20:57:01Z</time>
      </trkpt>
      <trkpt lat="47.00208" lon="-0.81568">
        <ele>124</ele>
        <time>2023-05-08T20:57:14Z</time>
      </trkpt>
      <trkpt lat="47.0011" lon="-0.8214">
        <ele>131</ele>
        <time>2023-05-08T20:58:26Z</time>
      </trkpt>
      <trkpt lat="47.00106" lon="-0.82177">
        <ele>132</ele>
        <time>2023-05-08T20:58:31Z</time>
      </trkpt>
      <trkpt lat="47.00109" lon="-0.82223">
        <ele>132</ele>
        <time>2023-05-08T20:58:36Z</time>
      </trkpt>
      <trkpt lat="47.00122" lon="-0.8234">
        <ele>130</ele>
        <time>2023-05-08T20:58:51Z</time>
      </trkpt>
      <trkpt lat="47.0013" lon="-0.82433">
        <ele>123</ele>
        <time>2023-05-08T20:59:02Z</time>
      </trkpt>
      <trkpt lat="47.00161" lon="-0.82738">
        <ele>122</ele>
        <time>2023-05-08T20:59:39Z</time>
      </trkpt>
      <trkpt lat="47.0016" lon="-0.82772">
        <ele>122</ele>
        <time>2023-05-08T20:59:43Z</time>
      </trkpt>
      <trkpt lat="47.00155" lon="-0.8281">
        <ele>123</ele>
        <time>2023-05-08T20:59:48Z</time>
      </trkpt>
      <trkpt lat="47.00118" lon="-0.83041">
        <ele>123</ele>
        <time>2023-05-08T21:00:17Z</time>
      </trkpt>
      <trkpt lat="47.00116" lon="-0.83105">
        <ele>124</ele>
        <time>2023-05-08T21:00:25Z</time>
      </trkpt>
      <trkpt lat="47.00117" lon="-0.83146">
        <ele>124</ele>
        <time>2023-05-08T21:00:30Z</time>
      </trkpt>
      <trkpt lat="47.00123" lon="-0.83186">
        <ele>124</ele>
        <time>2023-05-08T21:00:35Z</time>
      </trkpt>
      <trkpt lat="47.00143" lon="-0.83253">
        <ele>123</ele>
        <time>2023-05-08T21:00:44Z</time>
      </trkpt>
      <trkpt lat="47.00263" lon="-0.83628">
        <ele>129</ele>
        <time>2023-05-08T21:01:34Z</time>
      </trkpt>
      <trkpt lat="47.00321" lon="-0.838">
        <ele>133</ele>
        <time>2023-05-08T21:01:57Z</time>
      </trkpt>
      <trkpt lat="47.00343" lon="-0.83859">
        <ele>134</ele>
        <time>2023-05-08T21:02:05Z</time>
      </trkpt>
      <trkpt lat="47.0036" lon="-0.83922">
        <ele>135</ele>
        <time>2023-05-08T21:02:13Z</time>
      </trkpt>
      <trkpt lat="47.00216" lon="-0.84031">
        <ele>132</ele>
        <time>2023-05-08T21:02:42Z</time>
      </trkpt>
      <trkpt lat="47.00188" lon="-0.84048">
        <ele>132</ele>
        <time>2023-05-08T21:02:48Z</time>
      </trkpt>
      <trkpt lat="47.00159" lon="-0.84063">
        <ele>133</ele>
        <time>2023-05-08T21:02:53Z</time>
      </trkpt>
      <trkpt lat="47.00132" lon="-0.84074">
        <ele>133</ele>
        <time>2023-05-08T21:02:58Z</time>
      </trkpt>
      <trkpt lat="47.00005" lon="-0.84108">
        <ele>132</ele>
        <time>2023-05-08T21:03:21Z</time>
      </trkpt>
      <trkpt lat="46.99976" lon="-0.84124">
        <ele>133</ele>
        <time>2023-05-08T21:03:27Z</time>
      </trkpt>
      <trkpt lat="46.99951" lon="-0.84143">
        <ele>133</ele>
        <time>2023-05-08T21:03:32Z</time>
      </trkpt>
      <trkpt lat="46.99926" lon="-0.84157">
        <ele>134</ele>
        <time>2023-05-08T21:03:36Z</time>
      </trkpt>
      <trkpt lat="46.99842" lon="-0.84201">
        <ele>137</ele>
        <time>2023-05-08T21:03:52Z</time>
      </trkpt>
      <trkpt lat="46.99748" lon="-0.84244">
        <ele>139</ele>
        <time>2023-05-08T21:04:10Z</time>
      </trkpt>
      <trkpt lat="46.99707" lon="-0.84246">
        <ele>140</ele>
        <time>2023-05-08T21:04:17Z</time>
      </trkpt>
      <trkpt lat="46.99699" lon="-0.84248">
        <ele>140</ele>
        <time>2023-05-08T21:04:19Z</time>
      </trkpt>
      <trkpt lat="46.99688" lon="-0.84257">
        <ele>140</ele>
        <time>2023-05-08T21:04:21Z</time>
      </trkpt>
      <trkpt lat="46.99676" lon="-0.84263">
        <ele>140</ele>
        <time>2023-05-08T21:04:23Z</time>
      </trkpt>
      <trkpt lat="46.99663" lon="-0.84264">
        <ele>141</ele>
        <time>2023-05-08T21:04:25Z</time>
      </trkpt>
      <trkpt lat="46.99649" lon="-0.8426">
        <ele>141</ele>
        <time>2023-05-08T21:04:28Z</time>
      </trkpt>
      <trkpt lat="46.99613" lon="-0.84243">
        <ele>142</ele>
        <time>2023-05-08T21:04:35Z</time>
      </trkpt>
      <trkpt lat="46.99599" lon="-0.84242">
        <ele>143</ele>
        <time>2023-05-08T21:04:37Z</time>
      </trkpt>
      <trkpt lat="46.9958" lon="-0.84244">
        <ele>143</ele>
        <time>2023-05-08T21:04:41Z</time>
      </trkpt>
      <trkpt lat="46.99538" lon="-0.84256">
        <ele>143</ele>
        <time>2023-05-08T21:04:48Z</time>
      </trkpt>
      <trkpt lat="46.9941" lon="-0.84298">
        <ele>145</ele>
        <time>2023-05-08T21:05:11Z</time>
      </trkpt>
      <trkpt lat="46.99334" lon="-0.84318">
        <ele>147</ele>
        <time>2023-05-08T21:05:25Z</time>
      </trkpt>
      <trkpt lat="46.99284" lon="-0.84325">
        <ele>150</ele>
        <time>2023-05-08T21:05:34Z</time>
      </trkpt>
      <trkpt lat="46.99265" lon="-0.84325">
        <ele>151</ele>
        <time>2023-05-08T21:05:38Z</time>
      </trkpt>
      <trkpt lat="46.99229" lon="-0.8432">
        <ele>152</ele>
        <time>2023-05-08T21:05:44Z</time>
      </trkpt>
      <trkpt lat="46.98986" lon="-0.84287">
        <ele>155</ele>
        <time>2023-05-08T21:06:27Z</time>
      </trkpt>
      <trkpt lat="46.98961" lon="-0.8428">
        <ele>155</ele>
        <time>2023-05-08T21:06:32Z</time>
      </trkpt>
      <trkpt lat="46.9896" lon="-0.84288">
        <ele>155</ele>
        <time>2023-05-08T21:06:33Z</time>
      </trkpt>
      <trkpt lat="46.98955" lon="-0.84299">
        <ele>155</ele>
        <time>2023-05-08T21:06:35Z</time>
      </trkpt>
      <trkpt lat="46.98951" lon="-0.84303">
        <ele>155</ele>
        <time>2023-05-08T21:06:35Z</time>
      </trkpt>
      <trkpt lat="46.98946" lon="-0.84304">
        <ele>155</ele>
        <time>2023-05-08T21:06:36Z</time>
      </trkpt>
      <trkpt lat="46.98936" lon="-0.84299">
        <ele>155</ele>
        <time>2023-05-08T21:06:38Z</time>
      </trkpt>
      <trkpt lat="46.98933" lon="-0.84294">
        <ele>156</ele>
        <time>2023-05-08T21:06:39Z</time>
      </trkpt>
      <trkpt lat="46.98882" lon="-0.84353">
        <ele>155</ele>
        <time>2023-05-08T21:06:51Z</time>
      </trkpt>
      <trkpt lat="46.988" lon="-0.84444">
        <ele>153</ele>
        <time>2023-05-08T21:07:09Z</time>
      </trkpt>
      <trkpt lat="46.98802" lon="-0.84449">
        <ele>153</ele>
        <time>2023-05-08T21:07:10Z</time>
      </trkpt>
      <trkpt lat="46.98803" lon="-0.8446">
        <ele>153</ele>
        <time>2023-05-08T21:07:11Z</time>
      </trkpt>
      <trkpt lat="46.988" lon="-0.8447">
        <ele>152</ele>
        <time>2023-05-08T21:07:12Z</time>
      </trkpt>
      <trkpt lat="46.98793" lon="-0.84477">
        <ele>152</ele>
        <time>2023-05-08T21:07:14Z</time>
      </trkpt>
      <trkpt lat="46.98785" lon="-0.84477">
        <ele>152</ele>
        <time>2023-05-08T21:07:15Z</time>
      </trkpt>
      <trkpt lat="46.98777" lon="-0.84469">
        <ele>152</ele>
        <time>2023-05-08T21:07:17Z</time>
      </trkpt>
      <trkpt lat="46.98774" lon="-0.84456">
        <ele>152</ele>
        <time>2023-05-08T21:07:19Z</time>
      </trkpt>
      <trkpt lat="46.98761" lon="-0.84458">
        <ele>152</ele>
        <time>2023-05-08T21:07:21Z</time>
      </trkpt>
      <trkpt lat="46.98549" lon="-0.84461">
        <ele>150</ele>
        <time>2023-05-08T21:07:59Z</time>
      </trkpt>
      <trkpt lat="46.98546" lon="-0.84481">
        <ele>150</ele>
        <time>2023-05-08T21:08:01Z</time>
      </trkpt>
      <trkpt lat="46.98565" lon="-0.84481">
        <ele>150</ele>
        <time>2023-05-08T21:08:04Z</time>
      </trkpt>
      <trkpt lat="46.98565" lon="-0.84481">
        <ele>150</ele>
        <time>2023-05-08T21:08:04Z</time>
      </trkpt>
      <trkpt lat="46.98546" lon="-0.84481">
        <ele>150</ele>
        <time>2023-05-08T21:08:08Z</time>
      </trkpt>
      <trkpt lat="46.98536" lon="-0.84658">
        <ele>149</ele>
        <time>2023-05-08T21:08:29Z</time>
      </trkpt>
      <trkpt lat="46.98521" lon="-0.8476">
        <ele>148</ele>
        <time>2023-05-08T21:08:42Z</time>
      </trkpt>
      <trkpt lat="46.98519" lon="-0.84786">
        <ele>148</ele>
        <time>2023-05-08T21:08:45Z</time>
      </trkpt>
      <trkpt lat="46.98518" lon="-0.84821">
        <ele>148</ele>
        <time>2023-05-08T21:08:49Z</time>
      </trkpt>
      <trkpt lat="46.98522" lon="-0.84976">
        <ele>148</ele>
        <time>2023-05-08T21:09:08Z</time>
      </trkpt>
      <trkpt lat="46.98528" lon="-0.85089">
        <ele>149</ele>
        <time>2023-05-08T21:09:22Z</time>
      </trkpt>
      <trkpt lat="46.98533" lon="-0.85146">
        <ele>151</ele>
        <time>2023-05-08T21:09:29Z</time>
      </trkpt>
      <trkpt lat="46.98558" lon="-0.85287">
        <ele>152</ele>
        <time>2023-05-08T21:09:47Z</time>
      </trkpt>
      <trkpt lat="46.98561" lon="-0.85323">
        <ele>153</ele>
        <time>2023-05-08T21:09:51Z</time>
      </trkpt>
      <trkpt lat="46.98563" lon="-0.85398">
        <ele>155</ele>
        <time>2023-05-08T21:10:00Z</time>
      </trkpt>
      <trkpt lat="46.98558" lon="-0.8547">
        <ele>157</ele>
        <time>2023-05-08T21:10:09Z</time>
      </trkpt>
      <trkpt lat="46.98555" lon="-0.85497">
        <ele>158</ele>
        <time>2023-05-08T21:10:12Z</time>
      </trkpt>
      <trkpt lat="46.98552" lon="-0.85519">
        <ele>159</ele>
        <time>2023-05-08T21:10:15Z</time>
      </trkpt>
      <trkpt lat="46.98542" lon="-0.85563">
        <ele>161</ele>
        <time>2023-05-08T21:10:21Z</time>
      </trkpt>
      <trkpt lat="46.98539" lon="-0.85582">
        <ele>161</ele>
        <time>2023-05-08T21:10:23Z</time>
      </trkpt>
      <trkpt lat="46.98542" lon="-0.85608">
        <ele>163</ele>
        <time>2023-05-08T21:10:26Z</time>
      </trkpt>
      <trkpt lat="46.98547" lon="-0.85622">
        <ele>164</ele>
        <time>2023-05-08T21:10:28Z</time>
      </trkpt>
      <trkpt lat="46.98556" lon="-0.85638">
        <ele>165</ele>
        <time>2023-05-08T21:10:31Z</time>
      </trkpt>
      <trkpt lat="46.98625" lon="-0.85756">
        <ele>173</ele>
        <time>2023-05-08T21:10:50Z</time>
      </trkpt>
      <trkpt lat="46.98659" lon="-0.85825">
        <ele>177</ele>
        <time>2023-05-08T21:11:00Z</time>
      </trkpt>
      <trkpt lat="46.9874" lon="-0.86023">
        <ele>179</ele>
        <time>2023-05-08T21:11:28Z</time>
      </trkpt>
      <trkpt lat="46.988" lon="-0.86182">
        <ele>181</ele>
        <time>2023-05-08T21:11:50Z</time>
      </trkpt>
      <trkpt lat="46.98808" lon="-0.86197">
        <ele>181</ele>
        <time>2023-05-08T21:11:52Z</time>
      </trkpt>
      <trkpt lat="46.98839" lon="-0.86239">
        <ele>181</ele>
        <time>2023-05-08T21:12:00Z</time>
      </trkpt>
      <trkpt lat="46.98847" lon="-0.86254">
        <ele>181</ele>
        <time>2023-05-08T21:12:02Z</time>
      </trkpt>
      <trkpt lat="46.98894" lon="-0.86423">
        <ele>182</ele>
        <time>2023-05-08T21:12:24Z</time>
      </trkpt>
      <trkpt lat="46.989" lon="-0.86439">
        <ele>182</ele>
        <time>2023-05-08T21:12:26Z</time>
      </trkpt>
      <trkpt lat="46.98955" lon="-0.86538">
        <ele>182</ele>
        <time>2023-05-08T21:12:42Z</time>
      </trkpt>
      <trkpt lat="46.98971" lon="-0.86575">
        <ele>182</ele>
        <time>2023-05-08T21:12:47Z</time>
      </trkpt>
      <trkpt lat="46.99" lon="-0.86665">
        <ele>180</ele>
        <time>2023-05-08T21:12:59Z</time>
      </trkpt>
      <trkpt lat="46.99006" lon="-0.86692">
        <ele>179</ele>
        <time>2023-05-08T21:13:03Z</time>
      </trkpt>
      <trkpt lat="46.99023" lon="-0.86782">
        <ele>176</ele>
        <time>2023-05-08T21:13:14Z</time>
      </trkpt>
      <trkpt lat="46.99035" lon="-0.86828">
        <ele>175</ele>
        <time>2023-05-08T21:13:20Z</time>
      </trkpt>
      <trkpt lat="46.99042" lon="-0.86856">
        <ele>176</ele>
        <time>2023-05-08T21:13:24Z</time>
      </trkpt>
      <trkpt lat="46.99059" lon="-0.86898">
        <ele>176</ele>
        <time>2023-05-08T21:13:30Z</time>
      </trkpt>
      <trkpt lat="46.99084" lon="-0.86931">
        <ele>176</ele>
        <time>2023-05-08T21:13:36Z</time>
      </trkpt>
      <trkpt lat="46.99154" lon="-0.86997">
        <ele>177</ele>
        <time>2023-05-08T21:13:50Z</time>
      </trkpt>
      <trkpt lat="46.99167" lon="-0.8701">
        <ele>177</ele>
        <time>2023-05-08T21:13:53Z</time>
      </trkpt>
      <trkpt lat="46.99181" lon="-0.8703">
        <ele>176</ele>
        <time>2023-05-08T21:13:57Z</time>
      </trkpt>
      <trkpt lat="46.993" lon="-0.87234">
        <ele>177</ele>
        <time>2023-05-08T21:14:29Z</time>
      </trkpt>
      <trkpt lat="46.99341" lon="-0.8731">
        <ele>177</ele>
        <time>2023-05-08T21:14:41Z</time>
      </trkpt>
      <trkpt lat="46.99447" lon="-0.87584">
        <ele>176</ele>
        <time>2023-05-08T21:15:19Z</time>
      </trkpt>
      <trkpt lat="46.99577" lon="-0.87932">
        <ele>175</ele>
        <time>2023-05-08T21:16:07Z</time>
      </trkpt>
      <trkpt lat="46.99594" lon="-0.87986">
        <ele>174</ele>
        <time>2023-05-08T21:16:15Z</time>
      </trkpt>
      <trkpt lat="46.99629" lon="-0.88104">
        <ele>169</ele>
        <time>2023-05-08T21:16:30Z</time>
      </trkpt>
      <trkpt lat="46.99639" lon="-0.88132">
        <ele>167</ele>
        <time>2023-05-08T21:16:34Z</time>
      </trkpt>
      <trkpt lat="46.99662" lon="-0.88184">
        <ele>164</ele>
        <time>2023-05-08T21:16:42Z</time>
      </trkpt>
      <trkpt lat="46.99666" lon="-0.88189">
        <ele>164</ele>
        <time>2023-05-08T21:16:43Z</time>
      </trkpt>
      <trkpt lat="46.99666" lon="-0.88196">
        <ele>164</ele>
        <time>2023-05-08T21:16:43Z</time>
      </trkpt>
      <trkpt lat="46.9967" lon="-0.88215">
        <ele>163</ele>
        <time>2023-05-08T21:16:46Z</time>
      </trkpt>
      <trkpt lat="46.99702" lon="-0.883">
        <ele>163</ele>
        <time>2023-05-08T21:16:58Z</time>
      </trkpt>
      <trkpt lat="46.99728" lon="-0.88369">
        <ele>165</ele>
        <time>2023-05-08T21:17:07Z</time>
      </trkpt>
      <trkpt lat="46.9975" lon="-0.8841">
        <ele>167</ele>
        <time>2023-05-08T21:17:14Z</time>
      </trkpt>
      <trkpt lat="46.99755" lon="-0.8843">
        <ele>167</ele>
        <time>2023-05-08T21:17:16Z</time>
      </trkpt>
      <trkpt lat="46.99757" lon="-0.88448">
        <ele>167</ele>
        <time>2023-05-08T21:17:18Z</time>
      </trkpt>
      <trkpt lat="46.99747" lon="-0.88614">
        <ele>164</ele>
        <time>2023-05-08T21:17:39Z</time>
      </trkpt>
      <trkpt lat="46.99737" lon="-0.88694">
        <ele>160</ele>
        <time>2023-05-08T21:17:48Z</time>
      </trkpt>
      <trkpt lat="46.99726" lon="-0.88855">
        <ele>149</ele>
        <time>2023-05-08T21:18:08Z</time>
      </trkpt>
      <trkpt lat="46.99722" lon="-0.88883">
        <ele>148</ele>
        <time>2023-05-08T21:18:12Z</time>
      </trkpt>
      <trkpt lat="46.99714" lon="-0.88915">
        <ele>146</ele>
        <time>2023-05-08T21:18:16Z</time>
      </trkpt>
      <trkpt lat="46.99694" lon="-0.88977">
        <ele>144</ele>
        <time>2023-05-08T21:18:24Z</time>
      </trkpt>
      <trkpt lat="46.9969" lon="-0.89001">
        <ele>144</ele>
        <time>2023-05-08T21:18:27Z</time>
      </trkpt>
      <trkpt lat="46.99687" lon="-0.891">
        <ele>140</ele>
        <time>2023-05-08T21:18:39Z</time>
      </trkpt>
      <trkpt lat="46.99719" lon="-0.89196">
        <ele>141</ele>
        <time>2023-05-08T21:18:52Z</time>
      </trkpt>
      <trkpt lat="46.99719" lon="-0.89196">
        <ele>141</ele>
        <time>2023-05-08T21:18:52Z</time>
      </trkpt>
      <trkpt lat="46.99724" lon="-0.89218">
        <ele>141</ele>
        <time>2023-05-08T21:18:55Z</time>
      </trkpt>
      <trkpt lat="46.9973" lon="-0.89219">
        <ele>141</ele>
        <time>2023-05-08T21:18:56Z</time>
      </trkpt>
      <trkpt lat="46.99736" lon="-0.89224">
        <ele>141</ele>
        <time>2023-05-08T21:18:57Z</time>
      </trkpt>
      <trkpt lat="46.99737" lon="-0.89228">
        <ele>141</ele>
        <time>2023-05-08T21:18:58Z</time>
      </trkpt>
      <trkpt lat="46.99753" lon="-0.89222">
        <ele>142</ele>
        <time>2023-05-08T21:19:01Z</time>
      </trkpt>
      <trkpt lat="46.99796" lon="-0.89189">
        <ele>144</ele>
        <time>2023-05-08T21:19:09Z</time>
      </trkpt>
      <trkpt lat="46.99844" lon="-0.8916">
        <ele>144</ele>
        <time>2023-05-08T21:19:18Z</time>
      </trkpt>
      <trkpt lat="46.99889" lon="-0.8914">
        <ele>145</ele>
        <time>2023-05-08T21:19:27Z</time>
      </trkpt>
      <trkpt lat="46.99946" lon="-0.89123">
        <ele>146</ele>
        <time>2023-05-08T21:19:37Z</time>
      </trkpt>
      <trkpt lat="47.0016" lon="-0.89091">
        <ele>144</ele>
        <time>2023-05-08T21:20:15Z</time>
      </trkpt>
      <trkpt lat="47.00174" lon="-0.89091">
        <ele>144</ele>
        <time>2023-05-08T21:20:18Z</time>
      </trkpt>
      <trkpt lat="47.00194" lon="-0.89096">
        <ele>144</ele>
        <time>2023-05-08T21:20:21Z</time>
      </trkpt>
      <trkpt lat="47.00207" lon="-0.89104">
        <ele>144</ele>
        <time>2023-05-08T21:20:24Z</time>
      </trkpt>
      <trkpt lat="47.00212" lon="-0.89094">
        <ele>144</ele>
        <time>2023-05-08T21:20:26Z</time>
      </trkpt>
      <trkpt lat="47.00219" lon="-0.89086">
        <ele>143</ele>
        <time>2023-05-08T21:20:27Z</time>
      </trkpt>
      <trkpt lat="47.00227" lon="-0.89082">
        <ele>143</ele>
        <time>2023-05-08T21:20:29Z</time>
      </trkpt>
      <trkpt lat="47.00235" lon="-0.89082">
        <ele>143</ele>
        <time>2023-05-08T21:20:30Z</time>
      </trkpt>
      <trkpt lat="47.00243" lon="-0.89086">
        <ele>143</ele>
        <time>2023-05-08T21:20:32Z</time>
      </trkpt>
      <trkpt lat="47.00249" lon="-0.89092">
        <ele>143</ele>
        <time>2023-05-08T21:20:33Z</time>
      </trkpt>
      <trkpt lat="47.00254" lon="-0.891">
        <ele>143</ele>
        <time>2023-05-08T21:20:34Z</time>
      </trkpt>
      <trkpt lat="47.00257" lon="-0.89109">
        <ele>143</ele>
        <time>2023-05-08T21:20:35Z</time>
      </trkpt>
      <trkpt lat="47.00258" lon="-0.8912">
        <ele>143</ele>
        <time>2023-05-08T21:20:37Z</time>
      </trkpt>
      <trkpt lat="47.00256" lon="-0.89132">
        <ele>143</ele>
        <time>2023-05-08T21:20:38Z</time>
      </trkpt>
      <trkpt lat="47.00253" lon="-0.89142">
        <ele>144</ele>
        <time>2023-05-08T21:20:40Z</time>
      </trkpt>
      <trkpt lat="47.00247" lon="-0.89151">
        <ele>144</ele>
        <time>2023-05-08T21:20:41Z</time>
      </trkpt>
      <trkpt lat="47.0024" lon="-0.89157">
        <ele>144</ele>
        <time>2023-05-08T21:20:42Z</time>
      </trkpt>
      <trkpt lat="47.00232" lon="-0.89159">
        <ele>144</ele>
        <time>2023-05-08T21:20:44Z</time>
      </trkpt>
      <trkpt lat="47.00223" lon="-0.89157">
        <ele>144</ele>
        <time>2023-05-08T21:20:46Z</time>
      </trkpt>
      <trkpt lat="47.00216" lon="-0.89152">
        <ele>145</ele>
        <time>2023-05-08T21:20:47Z</time>
      </trkpt>
      <trkpt lat="47.0021" lon="-0.89143">
        <ele>145</ele>
        <time>2023-05-08T21:20:48Z</time>
      </trkpt>
      <trkpt lat="47.00167" lon="-0.89186">
        <ele>146</ele>
        <time>2023-05-08T21:20:58Z</time>
      </trkpt>
      <trkpt lat="47.00168" lon="-0.8919">
        <ele>146</ele>
        <time>2023-05-08T21:20:58Z</time>
      </trkpt>
      <trkpt lat="47.00168" lon="-0.89198">
        <ele>146</ele>
        <time>2023-05-08T21:20:59Z</time>
      </trkpt>
      <trkpt lat="47.00164" lon="-0.89204">
        <ele>146</ele>
        <time>2023-05-08T21:21:00Z</time>
      </trkpt>
      <trkpt lat="47.0018" lon="-0.89251">
        <ele>146</ele>
        <time>2023-05-08T21:21:07Z</time>
      </trkpt>
      <trkpt lat="47.00197" lon="-0.89337">
        <ele>145</ele>
        <time>2023-05-08T21:21:17Z</time>
      </trkpt>
      <trkpt lat="47.00208" lon="-0.8942">
        <ele>145</ele>
        <time>2023-05-08T21:21:28Z</time>
      </trkpt>
      <trkpt lat="47.00213" lon="-0.89425">
        <ele>144</ele>
        <time>2023-05-08T21:21:29Z</time>
      </trkpt>
      <trkpt lat="47.00209" lon="-0.89432">
        <ele>144</ele>
        <time>2023-05-08T21:21:30Z</time>
      </trkpt>
      <trkpt lat="47.00209" lon="-0.89443">
        <ele>144</ele>
        <time>2023-05-08T21:21:31Z</time>
      </trkpt>
      <trkpt lat="47.00211" lon="-0.89458">
        <ele>144</ele>
        <time>2023-05-08T21:21:33Z</time>
      </trkpt>
      <trkpt lat="47.00227" lon="-0.89534">
        <ele>144</ele>
        <time>2023-05-08T21:21:43Z</time>
      </trkpt>
      <trkpt lat="47.00235" lon="-0.89613">
        <ele>143</ele>
        <time>2023-05-08T21:21:52Z</time>
      </trkpt>
      <trkpt lat="47.00256" lon="-0.89705">
        <ele>140</ele>
        <time>2023-05-08T21:22:04Z</time>
      </trkpt>
      <trkpt lat="47.00272" lon="-0.89751">
        <ele>138</ele>
        <time>2023-05-08T21:22:10Z</time>
      </trkpt>
      <trkpt lat="47.0029" lon="-0.89794">
        <ele>136</ele>
        <time>2023-05-08T21:22:17Z</time>
      </trkpt>
      <trkpt lat="47.003" lon="-0.89837">
        <ele>135</ele>
        <time>2023-05-08T21:22:22Z</time>
      </trkpt>
      <trkpt lat="47.00312" lon="-0.89879">
        <ele>135</ele>
        <time>2023-05-08T21:22:28Z</time>
      </trkpt>
      <trkpt lat="47.00425" lon="-0.90149">
        <ele>129</ele>
        <time>2023-05-08T21:23:06Z</time>
      </trkpt>
      <trkpt lat="47.00448" lon="-0.9019">
        <ele>130</ele>
        <time>2023-05-08T21:23:13Z</time>
      </trkpt>
      <trkpt lat="47.00475" lon="-0.90233">
        <ele>130</ele>
        <time>2023-05-08T21:23:20Z</time>
      </trkpt>
      <trkpt lat="47.00537" lon="-0.90327">
        <ele>127</ele>
        <time>2023-05-08T21:23:35Z</time>
      </trkpt>
      <trkpt lat="47.00544" lon="-0.90338">
        <ele>126</ele>
        <time>2023-05-08T21:23:37Z</time>
      </trkpt>
      <trkpt lat="47.00553" lon="-0.90361">
        <ele>126</ele>
        <time>2023-05-08T21:23:41Z</time>
      </trkpt>
      <trkpt lat="47.00559" lon="-0.9038">
        <ele>126</ele>
        <time>2023-05-08T21:23:43Z</time>
      </trkpt>
      <trkpt lat="47.00563" lon="-0.9041">
        <ele>126</ele>
        <time>2023-05-08T21:23:47Z</time>
      </trkpt>
      <trkpt lat="47.00562" lon="-0.90436">
        <ele>126</ele>
        <time>2023-05-08T21:23:50Z</time>
      </trkpt>
      <trkpt lat="47.00554" lon="-0.90501">
        <ele>127</ele>
        <time>2023-05-08T21:23:58Z</time>
      </trkpt>
      <trkpt lat="47.00552" lon="-0.90527">
        <ele>127</ele>
        <time>2023-05-08T21:24:01Z</time>
      </trkpt>
      <trkpt lat="47.00553" lon="-0.90553">
        <ele>127</ele>
        <time>2023-05-08T21:24:04Z</time>
      </trkpt>
      <trkpt lat="47.00562" lon="-0.9059">
        <ele>126</ele>
        <time>2023-05-08T21:24:09Z</time>
      </trkpt>
      <trkpt lat="47.00571" lon="-0.90612">
        <ele>126</ele>
        <time>2023-05-08T21:24:12Z</time>
      </trkpt>
      <trkpt lat="47.006" lon="-0.90657">
        <ele>125</ele>
        <time>2023-05-08T21:24:20Z</time>
      </trkpt>
      <trkpt lat="47.00616" lon="-0.90693">
        <ele>124</ele>
        <time>2023-05-08T21:24:25Z</time>
      </trkpt>
      <trkpt lat="47.0063" lon="-0.90737">
        <ele>124</ele>
        <time>2023-05-08T21:24:31Z</time>
      </trkpt>
      <trkpt lat="47.00645" lon="-0.90802">
        <ele>124</ele>
        <time>2023-05-08T21:24:39Z</time>
      </trkpt>
      <trkpt lat="47.00659" lon="-0.90853">
        <ele>124</ele>
        <time>2023-05-08T21:24:46Z</time>
      </trkpt>
      <trkpt lat="47.00687" lon="-0.90944">
        <ele>123</ele>
        <time>2023-05-08T21:24:58Z</time>
      </trkpt>
      <trkpt lat="47.00702" lon="-0.90983">
        <ele>121</ele>
        <time>2023-05-08T21:25:03Z</time>
      </trkpt>
      <trkpt lat="47.00713" lon="-0.91038">
        <ele>120</ele>
        <time>2023-05-08T21:25:10Z</time>
      </trkpt>
      <trkpt lat="47.00727" lon="-0.91089">
        <ele>119</ele>
        <time>2023-05-08T21:25:17Z</time>
      </trkpt>
      <trkpt lat="47.00746" lon="-0.91143">
        <ele>120</ele>
        <time>2023-05-08T21:25:24Z</time>
      </trkpt>
      <trkpt lat="47.00754" lon="-0.91177">
        <ele>120</ele>
        <time>2023-05-08T21:25:29Z</time>
      </trkpt>
      <trkpt lat="47.0078" lon="-0.91374">
        <ele>116</ele>
        <time>2023-05-08T21:25:53Z</time>
      </trkpt>
      <trkpt lat="47.00779" lon="-0.91434">
        <ele>115</ele>
        <time>2023-05-08T21:26:00Z</time>
      </trkpt>
      <trkpt lat="47.00781" lon="-0.91469">
        <ele>115</ele>
        <time>2023-05-08T21:26:05Z</time>
      </trkpt>
      <trkpt lat="47.00788" lon="-0.91504">
        <ele>114</ele>
        <time>2023-05-08T21:26:09Z</time>
      </trkpt>
      <trkpt lat="47.00814" lon="-0.91583">
        <ele>112</ele>
        <time>2023-05-08T21:26:20Z</time>
      </trkpt>
      <trkpt lat="47.00836" lon="-0.91643">
        <ele>111</ele>
        <time>2023-05-08T21:26:28Z</time>
      </trkpt>
      <trkpt lat="47.00871" lon="-0.91712">
        <ele>111</ele>
        <time>2023-05-08T21:26:38Z</time>
      </trkpt>
      <trkpt lat="47.00898" lon="-0.91759">
        <ele>111</ele>
        <time>2023-05-08T21:26:46Z</time>
      </trkpt>
      <trkpt lat="47.00937" lon="-0.91835">
        <ele>111</ele>
        <time>2023-05-08T21:26:57Z</time>
      </trkpt>
      <trkpt lat="47.00956" lon="-0.91888">
        <ele>112</ele>
        <time>2023-05-08T21:27:05Z</time>
      </trkpt>
      <trkpt lat="47.00979" lon="-0.91959">
        <ele>113</ele>
        <time>2023-05-08T21:27:14Z</time>
      </trkpt>
      <trkpt lat="47.00986" lon="-0.9199">
        <ele>113</ele>
        <time>2023-05-08T21:27:18Z</time>
      </trkpt>
      <trkpt lat="47.00991" lon="-0.92036">
        <ele>112</ele>
        <time>2023-05-08T21:27:24Z</time>
      </trkpt>
      <trkpt lat="47.00998" lon="-0.92148">
        <ele>111</ele>
        <time>2023-05-08T21:27:37Z</time>
      </trkpt>
      <trkpt lat="47.01007" lon="-0.92217">
        <ele>111</ele>
        <time>2023-05-08T21:27:46Z</time>
      </trkpt>
      <trkpt lat="47.01019" lon="-0.92261">
        <ele>110</ele>
        <time>2023-05-08T21:27:52Z</time>
      </trkpt>
      <trkpt lat="47.01034" lon="-0.92304">
        <ele>110</ele>
        <time>2023-05-08T21:27:58Z</time>
      </trkpt>
      <trkpt lat="47.01044" lon="-0.92325">
        <ele>110</ele>
        <time>2023-05-08T21:28:01Z</time>
      </trkpt>
      <trkpt lat="47.01078" lon="-0.92357">
        <ele>110</ele>
        <time>2023-05-08T21:28:08Z</time>
      </trkpt>
      <trkpt lat="47.01116" lon="-0.92391">
        <ele>111</ele>
        <time>2023-05-08T21:28:16Z</time>
      </trkpt>
      <trkpt lat="47.01176" lon="-0.92449">
        <ele>110</ele>
        <time>2023-05-08T21:28:29Z</time>
      </trkpt>
      <trkpt lat="47.01176" lon="-0.92449">
        <ele>110</ele>
        <time>2023-05-08T21:28:29Z</time>
      </trkpt>
      <trkpt lat="47.01233" lon="-0.92507">
        <ele>108</ele>
        <time>2023-05-08T21:28:41Z</time>
      </trkpt>
      <trkpt lat="47.01265" lon="-0.92525">
        <ele>108</ele>
        <time>2023-05-08T21:28:47Z</time>
      </trkpt>
      <trkpt lat="47.01287" lon="-0.92532">
        <ele>108</ele>
        <time>2023-05-08T21:28:51Z</time>
      </trkpt>
      <trkpt lat="47.01352" lon="-0.92535">
        <ele>109</ele>
        <time>2023-05-08T21:29:03Z</time>
      </trkpt>
      <trkpt lat="47.01367" lon="-0.9254">
        <ele>109</ele>
        <time>2023-05-08T21:29:05Z</time>
      </trkpt>
      <trkpt lat="47.01411" lon="-0.9257">
        <ele>107</ele>
        <time>2023-05-08T21:29:14Z</time>
      </trkpt>
      <trkpt lat="47.01462" lon="-0.92613">
        <ele>106</ele>
        <time>2023-05-08T21:29:24Z</time>
      </trkpt>
      <trkpt lat="47.01485" lon="-0.92624">
        <ele>106</ele>
        <time>2023-05-08T21:29:29Z</time>
      </trkpt>
      <trkpt lat="47.01491" lon="-0.92625">
        <ele>106</ele>
        <time>2023-05-08T21:29:30Z</time>
      </trkpt>
      <trkpt lat="47.01496" lon="-0.92623">
        <ele>106</ele>
        <time>2023-05-08T21:29:31Z</time>
      </trkpt>
      <trkpt lat="47.01504" lon="-0.92625">
        <ele>106</ele>
        <time>2023-05-08T21:29:32Z</time>
      </trkpt>
      <trkpt lat="47.0151" lon="-0.92636">
        <ele>106</ele>
        <time>2023-05-08T21:29:34Z</time>
      </trkpt>
      <trkpt lat="47.01511" lon="-0.92645">
        <ele>105</ele>
        <time>2023-05-08T21:29:35Z</time>
      </trkpt>
      <trkpt lat="47.01526" lon="-0.92671">
        <ele>105</ele>
        <time>2023-05-08T21:29:39Z</time>
      </trkpt>
      <trkpt lat="47.01592" lon="-0.92738">
        <ele>105</ele>
        <time>2023-05-08T21:29:53Z</time>
      </trkpt>
      <trkpt lat="47.01611" lon="-0.92753">
        <ele>104</ele>
        <time>2023-05-08T21:29:57Z</time>
      </trkpt>
      <trkpt lat="47.01621" lon="-0.92757">
        <ele>104</ele>
        <time>2023-05-08T21:29:59Z</time>
      </trkpt>
      <trkpt lat="47.01632" lon="-0.92758">
        <ele>104</ele>
        <time>2023-05-08T21:30:01Z</time>
      </trkpt>
      <trkpt lat="47.01638" lon="-0.92755">
        <ele>104</ele>
        <time>2023-05-08T21:30:02Z</time>
      </trkpt>
      <trkpt lat="47.01647" lon="-0.92755">
        <ele>104</ele>
        <time>2023-05-08T21:30:04Z</time>
      </trkpt>
      <trkpt lat="47.01652" lon="-0.92758">
        <ele>103</ele>
        <time>2023-05-08T21:30:05Z</time>
      </trkpt>
      <trkpt lat="47.01659" lon="-0.92769">
        <ele>104</ele>
        <time>2023-05-08T21:30:07Z</time>
      </trkpt>
      <trkpt lat="47.01661" lon="-0.92779">
        <ele>104</ele>
        <time>2023-05-08T21:30:08Z</time>
      </trkpt>
      <trkpt lat="47.01661" lon="-0.92791">
        <ele>104</ele>
        <time>2023-05-08T21:30:09Z</time>
      </trkpt>
      <trkpt lat="47.01669" lon="-0.92809">
        <ele>104</ele>
        <time>2023-05-08T21:30:12Z</time>
      </trkpt>
      <trkpt lat="47.01684" lon="-0.9283">
        <ele>104</ele>
        <time>2023-05-08T21:30:16Z</time>
      </trkpt>
      <trkpt lat="47.01721" lon="-0.92872">
        <ele>103</ele>
        <time>2023-05-08T21:30:24Z</time>
      </trkpt>
      <trkpt lat="47.01776" lon="-0.92943">
        <ele>101</ele>
        <time>2023-05-08T21:30:37Z</time>
      </trkpt>
      <trkpt lat="47.01915" lon="-0.93127">
        <ele>100</ele>
        <time>2023-05-08T21:31:10Z</time>
      </trkpt>
      <trkpt lat="47.01953" lon="-0.93182">
        <ele>99</ele>
        <time>2023-05-08T21:31:20Z</time>
      </trkpt>
      <trkpt lat="47.02004" lon="-0.9326">
        <ele>99</ele>
        <time>2023-05-08T21:31:33Z</time>
      </trkpt>
      <trkpt lat="47.02073" lon="-0.93391">
        <ele>98</ele>
        <time>2023-05-08T21:31:53Z</time>
      </trkpt>
      <trkpt lat="47.0214" lon="-0.93511">
        <ele>95</ele>
        <time>2023-05-08T21:32:12Z</time>
      </trkpt>
      <trkpt lat="47.02201" lon="-0.93636">
        <ele>89</ele>
        <time>2023-05-08T21:32:30Z</time>
      </trkpt>
      <trkpt lat="47.02219" lon="-0.93682">
        <ele>88</ele>
        <time>2023-05-08T21:32:37Z</time>
      </trkpt>
      <trkpt lat="47.02225" lon="-0.93757">
        <ele>86</ele>
        <time>2023-05-08T21:32:46Z</time>
      </trkpt>
      <trkpt lat="47.02235" lon="-0.93798">
        <ele>87</ele>
        <time>2023-05-08T21:32:51Z</time>
      </trkpt>
      <trkpt lat="47.02246" lon="-0.93825">
        <ele>88</ele>
        <time>2023-05-08T21:32:55Z</time>
      </trkpt>
      <trkpt lat="47.02276" lon="-0.93863">
        <ele>89</ele>
        <time>2023-05-08T21:33:02Z</time>
      </trkpt>
      <trkpt lat="47.02496" lon="-0.94114">
        <ele>98</ele>
        <time>2023-05-08T21:33:52Z</time>
      </trkpt>
      <trkpt lat="47.02543" lon="-0.94199">
        <ele>97</ele>
        <time>2023-05-08T21:34:05Z</time>
      </trkpt>
      <trkpt lat="47.02561" lon="-0.94236">
        <ele>98</ele>
        <time>2023-05-08T21:34:10Z</time>
      </trkpt>
      <trkpt lat="47.02578" lon="-0.94265">
        <ele>98</ele>
        <time>2023-05-08T21:34:15Z</time>
      </trkpt>
      <trkpt lat="47.02602" lon="-0.94289">
        <ele>98</ele>
        <time>2023-05-08T21:34:20Z</time>
      </trkpt>
      <trkpt lat="47.02662" lon="-0.94341">
        <ele>97</ele>
        <time>2023-05-08T21:34:33Z</time>
      </trkpt>
      <trkpt lat="47.02672" lon="-0.94346">
        <ele>97</ele>
        <time>2023-05-08T21:34:35Z</time>
      </trkpt>
      <trkpt lat="47.02676" lon="-0.94342">
        <ele>97</ele>
        <time>2023-05-08T21:34:35Z</time>
      </trkpt>
      <trkpt lat="47.02679" lon="-0.94343">
        <ele>97</ele>
        <time>2023-05-08T21:34:36Z</time>
      </trkpt>
      <trkpt lat="47.02681" lon="-0.94352">
        <ele>97</ele>
        <time>2023-05-08T21:34:37Z</time>
      </trkpt>
      <trkpt lat="47.02702" lon="-0.94368">
        <ele>97</ele>
        <time>2023-05-08T21:34:41Z</time>
      </trkpt>
      <trkpt lat="47.02713" lon="-0.94381">
        <ele>97</ele>
        <time>2023-05-08T21:34:44Z</time>
      </trkpt>
      <trkpt lat="47.02723" lon="-0.94401">
        <ele>97</ele>
        <time>2023-05-08T21:34:47Z</time>
      </trkpt>
      <trkpt lat="47.02731" lon="-0.94425">
        <ele>98</ele>
        <time>2023-05-08T21:34:50Z</time>
      </trkpt>
      <trkpt lat="47.02736" lon="-0.94452">
        <ele>98</ele>
        <time>2023-05-08T21:34:54Z</time>
      </trkpt>
      <trkpt lat="47.02601" lon="-0.94562">
        <ele>103</ele>
        <time>2023-05-08T21:35:21Z</time>
      </trkpt>
      <trkpt lat="47.02578" lon="-0.94575">
        <ele>104</ele>
        <time>2023-05-08T21:35:25Z</time>
      </trkpt>
      <trkpt lat="47.02558" lon="-0.94582">
        <ele>103</ele>
        <time>2023-05-08T21:35:29Z</time>
      </trkpt>
      <trkpt lat="47.02558" lon="-0.94582">
        <ele>103</ele>
        <time>2023-05-08T21:35:29Z</time>
      </trkpt>
      <trkpt lat="47.02539" lon="-0.94588">
        <ele>103</ele>
        <time>2023-05-08T21:35:32Z</time>
      </trkpt>
      <trkpt lat="47.02601" lon="-0.94773">
        <ele>99</ele>
        <time>2023-05-08T21:35:57Z</time>
      </trkpt>
      <trkpt lat="47.02605" lon="-0.94836">
        <ele>97</ele>
        <time>2023-05-08T21:36:05Z</time>
      </trkpt>
      <trkpt lat="47.02606" lon="-0.94912">
        <ele>96</ele>
        <time>2023-05-08T21:36:14Z</time>
      </trkpt>
      <trkpt lat="47.02681" lon="-0.95791">
        <ele>104</ele>
        <time>2023-05-08T21:38:02Z</time>
      </trkpt>
      <trkpt lat="47.02686" lon="-0.95872">
        <ele>104</ele>
        <time>2023-05-08T21:38:12Z</time>
      </trkpt>
      <trkpt lat="47.02682" lon="-0.95897">
        <ele>104</ele>
        <time>2023-05-08T21:38:15Z</time>
      </trkpt>
      <trkpt lat="47.02547" lon="-0.96322">
        <ele>95</ele>
        <time>2023-05-08T21:39:12Z</time>
      </trkpt>
      <trkpt lat="47.02539" lon="-0.96356">
        <ele>94</ele>
        <time>2023-05-08T21:39:16Z</time>
      </trkpt>
      <trkpt lat="47.02515" lon="-0.96626">
        <ele>89</ele>
        <time>2023-05-08T21:39:49Z</time>
      </trkpt>
      <trkpt lat="47.0248" lon="-0.97101">
        <ele>96</ele>
        <time>2023-05-08T21:40:47Z</time>
      </trkpt>
      <trkpt lat="47.02476" lon="-0.97143">
        <ele>96</ele>
        <time>2023-05-08T21:40:52Z</time>
      </trkpt>
      <trkpt lat="47.0247" lon="-0.9717">
        <ele>96</ele>
        <time>2023-05-08T21:40:56Z</time>
      </trkpt>
      <trkpt lat="47.02463" lon="-0.97192">
        <ele>96</ele>
        <time>2023-05-08T21:40:59Z</time>
      </trkpt>
      <trkpt lat="47.02368" lon="-0.97446">
        <ele>103</ele>
        <time>2023-05-08T21:41:34Z</time>
      </trkpt>
      <trkpt lat="47.02356" lon="-0.97476">
        <ele>105</ele>
        <time>2023-05-08T21:41:38Z</time>
      </trkpt>
      <trkpt lat="47.02311" lon="-0.97572">
        <ele>108</ele>
        <time>2023-05-08T21:41:52Z</time>
      </trkpt>
      <trkpt lat="47.023" lon="-0.97599">
        <ele>109</ele>
        <time>2023-05-08T21:41:56Z</time>
      </trkpt>
      <trkpt lat="47.02293" lon="-0.97624">
        <ele>111</ele>
        <time>2023-05-08T21:41:59Z</time>
      </trkpt>
      <trkpt lat="47.02276" lon="-0.97768">
        <ele>117</ele>
        <time>2023-05-08T21:42:17Z</time>
      </trkpt>
      <trkpt lat="47.02225" lon="-0.98247">
        <ele>125</ele>
        <time>2023-05-08T21:43:16Z</time>
      </trkpt>
      <trkpt lat="47.0219" lon="-0.98555">
        <ele>126</ele>
        <time>2023-05-08T21:43:54Z</time>
      </trkpt>
      <trkpt lat="47.02175" lon="-0.98636">
        <ele>127</ele>
        <time>2023-05-08T21:44:04Z</time>
      </trkpt>
      <trkpt lat="47.02149" lon="-0.98698">
        <ele>128</ele>
        <time>2023-05-08T21:44:13Z</time>
      </trkpt>
      <trkpt lat="47.01878" lon="-0.99186">
        <ele>137</ele>
        <time>2023-05-08T21:45:29Z</time>
      </trkpt>
      <trkpt lat="47.01868" lon="-0.9921">
        <ele>137</ele>
        <time>2023-05-08T21:45:32Z</time>
      </trkpt>
      <trkpt lat="47.01813" lon="-0.99377">
        <ele>138</ele>
        <time>2023-05-08T21:45:55Z</time>
      </trkpt>
      <trkpt lat="47.01774" lon="-0.9948">
        <ele>136</ele>
        <time>2023-05-08T21:46:09Z</time>
      </trkpt>
      <trkpt lat="47.01759" lon="-0.99506">
        <ele>136</ele>
        <time>2023-05-08T21:46:13Z</time>
      </trkpt>
      <trkpt lat="47.01749" lon="-0.99519">
        <ele>136</ele>
        <time>2023-05-08T21:46:16Z</time>
      </trkpt>
      <trkpt lat="47.01731" lon="-0.99533">
        <ele>135</ele>
        <time>2023-05-08T21:46:19Z</time>
      </trkpt>
      <trkpt lat="47.01697" lon="-0.99553">
        <ele>135</ele>
        <time>2023-05-08T21:46:26Z</time>
      </trkpt>
      <trkpt lat="47.01467" lon="-0.99669">
        <ele>134</ele>
        <time>2023-05-08T21:47:09Z</time>
      </trkpt>
      <trkpt lat="47.01303" lon="-0.99807">
        <ele>129</ele>
        <time>2023-05-08T21:47:43Z</time>
      </trkpt>
      <trkpt lat="47.01271" lon="-0.9984">
        <ele>128</ele>
        <time>2023-05-08T21:47:50Z</time>
      </trkpt>
      <trkpt lat="47.01186" lon="-0.99939">
        <ele>127</ele>
        <time>2023-05-08T21:48:09Z</time>
      </trkpt>
      <trkpt lat="47.01136" lon="-0.99982">
        <ele>125</ele>
        <time>2023-05-08T21:48:19Z</time>
      </trkpt>
      <trkpt lat="47.01052" lon="-1.00098">
        <ele>123</ele>
        <time>2023-05-08T21:48:40Z</time>
      </trkpt>
      <trkpt lat="47.0092" lon="-1.00288">
        <ele>118</ele>
        <time>2023-05-08T21:49:13Z</time>
      </trkpt>
      <trkpt lat="47.00828" lon="-1.00394">
        <ele>116</ele>
        <time>2023-05-08T21:49:34Z</time>
      </trkpt>
      <trkpt lat="47.0084" lon="-1.00439">
        <ele>115</ele>
        <time>2023-05-08T21:49:39Z</time>
      </trkpt>
      <trkpt lat="47.0084" lon="-1.00439">
        <ele>115</ele>
        <time>2023-05-08T21:49:39Z</time>
      </trkpt>
      <trkpt lat="47.0089" lon="-1.0063">
        <ele>112</ele>
        <time>2023-05-08T21:50:04Z</time>
      </trkpt>
      <trkpt lat="47.00915" lon="-1.00744">
        <ele>111</ele>
        <time>2023-05-08T21:50:19Z</time>
      </trkpt>
      <trkpt lat="47.00922" lon="-1.00797">
        <ele>109</ele>
        <time>2023-05-08T21:50:25Z</time>
      </trkpt>
      <trkpt lat="47.00927" lon="-1.00945">
        <ele>101</ele>
        <time>2023-05-08T21:50:43Z</time>
      </trkpt>
      <trkpt lat="47.00927" lon="-1.00982">
        <ele>99</ele>
        <time>2023-05-08T21:50:48Z</time>
      </trkpt>
      <trkpt lat="47.00925" lon="-1.01016">
        <ele>97</ele>
        <time>2023-05-08T21:50:52Z</time>
      </trkpt>
      <trkpt lat="47.00921" lon="-1.01058">
        <ele>96</ele>
        <time>2023-05-08T21:50:57Z</time>
      </trkpt>
      <trkpt lat="47.00907" lon="-1.01165">
        <ele>91</ele>
        <time>2023-05-08T21:51:10Z</time>
      </trkpt>
      <trkpt lat="47.0091" lon="-1.01213">
        <ele>91</ele>
        <time>2023-05-08T21:51:16Z</time>
      </trkpt>
      <trkpt lat="47.00997" lon="-1.01718">
        <ele>113</ele>
        <time>2023-05-08T21:52:19Z</time>
      </trkpt>
      <trkpt lat="47.01002" lon="-1.0174">
        <ele>114</ele>
        <time>2023-05-08T21:52:22Z</time>
      </trkpt>
      <trkpt lat="47.01059" lon="-1.01915">
        <ele>117</ele>
        <time>2023-05-08T21:52:46Z</time>
      </trkpt>
      <trkpt lat="47.01101" lon="-1.02083">
        <ele>118</ele>
        <time>2023-05-08T21:53:07Z</time>
      </trkpt>
      <trkpt lat="47.01108" lon="-1.02104">
        <ele>118</ele>
        <time>2023-05-08T21:53:10Z</time>
      </trkpt>
      <trkpt lat="47.0113" lon="-1.02153">
        <ele>118</ele>
        <time>2023-05-08T21:53:17Z</time>
      </trkpt>
      <trkpt lat="47.01134" lon="-1.02166">
        <ele>118</ele>
        <time>2023-05-08T21:53:19Z</time>
      </trkpt>
      <trkpt lat="47.01139" lon="-1.02185">
        <ele>118</ele>
        <time>2023-05-08T21:53:21Z</time>
      </trkpt>
      <trkpt lat="47.01165" lon="-1.02319">
        <ele>117</ele>
        <time>2023-05-08T21:53:38Z</time>
      </trkpt>
      <trkpt lat="47.01189" lon="-1.02419">
        <ele>119</ele>
        <time>2023-05-08T21:53:51Z</time>
      </trkpt>
      <trkpt lat="47.01214" lon="-1.02497">
        <ele>120</ele>
        <time>2023-05-08T21:54:02Z</time>
      </trkpt>
      <trkpt lat="47.0125" lon="-1.026">
        <ele>121</ele>
        <time>2023-05-08T21:54:16Z</time>
      </trkpt>
      <trkpt lat="47.01271" lon="-1.0267">
        <ele>123</ele>
        <time>2023-05-08T21:54:25Z</time>
      </trkpt>
      <trkpt lat="47.01302" lon="-1.0281">
        <ele>123</ele>
        <time>2023-05-08T21:54:43Z</time>
      </trkpt>
      <trkpt lat="47.01321" lon="-1.02925">
        <ele>122</ele>
        <time>2023-05-08T21:54:57Z</time>
      </trkpt>
      <trkpt lat="47.01323" lon="-1.02944">
        <ele>122</ele>
        <time>2023-05-08T21:55:00Z</time>
      </trkpt>
      <trkpt lat="47.01323" lon="-1.02972">
        <ele>121</ele>
        <time>2023-05-08T21:55:03Z</time>
      </trkpt>
      <trkpt lat="47.01315" lon="-1.03029">
        <ele>120</ele>
        <time>2023-05-08T21:55:10Z</time>
      </trkpt>
      <trkpt lat="47.01316" lon="-1.03047">
        <ele>120</ele>
        <time>2023-05-08T21:55:12Z</time>
      </trkpt>
      <trkpt lat="47.01319" lon="-1.03067">
        <ele>119</ele>
        <time>2023-05-08T21:55:15Z</time>
      </trkpt>
      <trkpt lat="47.01388" lon="-1.03373">
        <ele>125</ele>
        <time>2023-05-08T21:55:54Z</time>
      </trkpt>
      <trkpt lat="47.01404" lon="-1.03415">
        <ele>126</ele>
        <time>2023-05-08T21:56:00Z</time>
      </trkpt>
      <trkpt lat="47.01427" lon="-1.03467">
        <ele>125</ele>
        <time>2023-05-08T21:56:07Z</time>
      </trkpt>
      <trkpt lat="47.01453" lon="-1.03533">
        <ele>125</ele>
        <time>2023-05-08T21:56:16Z</time>
      </trkpt>
      <trkpt lat="47.01491" lon="-1.03653">
        <ele>122</ele>
        <time>2023-05-08T21:56:32Z</time>
      </trkpt>
      <trkpt lat="47.015" lon="-1.03675">
        <ele>122</ele>
        <time>2023-05-08T21:56:36Z</time>
      </trkpt>
      <trkpt lat="47.01534" lon="-1.03747">
        <ele>122</ele>
        <time>2023-05-08T21:56:46Z</time>
      </trkpt>
      <trkpt lat="47.01572" lon="-1.03836">
        <ele>124</ele>
        <time>2023-05-08T21:56:59Z</time>
      </trkpt>
      <trkpt lat="47.01612" lon="-1.0394">
        <ele>124</ele>
        <time>2023-05-08T21:57:13Z</time>
      </trkpt>
      <trkpt lat="47.01617" lon="-1.0397">
        <ele>123</ele>
        <time>2023-05-08T21:57:17Z</time>
      </trkpt>
      <trkpt lat="47.01618" lon="-1.03986">
        <ele>123</ele>
        <time>2023-05-08T21:57:19Z</time>
      </trkpt>
      <trkpt lat="47.01613" lon="-1.041">
        <ele>123</ele>
        <time>2023-05-08T21:57:33Z</time>
      </trkpt>
      <trkpt lat="47.01605" lon="-1.0419">
        <ele>123</ele>
        <time>2023-05-08T21:57:44Z</time>
      </trkpt>
      <trkpt lat="47.01573" lon="-1.04412">
        <ele>123</ele>
        <time>2023-05-08T21:58:12Z</time>
      </trkpt>
      <trkpt lat="47.01572" lon="-1.04468">
        <ele>122</ele>
        <time>2023-05-08T21:58:18Z</time>
      </trkpt>
      <trkpt lat="47.01572" lon="-1.04607">
        <ele>126</ele>
        <time>2023-05-08T21:58:35Z</time>
      </trkpt>
      <trkpt lat="47.01578" lon="-1.0468">
        <ele>127</ele>
        <time>2023-05-08T21:58:44Z</time>
      </trkpt>
      <trkpt lat="47.01596" lon="-1.04826">
        <ele>126</ele>
        <time>2023-05-08T21:59:02Z</time>
      </trkpt>
      <trkpt lat="47.016" lon="-1.04876">
        <ele>126</ele>
        <time>2023-05-08T21:59:08Z</time>
      </trkpt>
      <trkpt lat="47.016" lon="-1.0492">
        <ele>126</ele>
        <time>2023-05-08T21:59:14Z</time>
      </trkpt>
      <trkpt lat="47.01593" lon="-1.05029">
        <ele>124</ele>
        <time>2023-05-08T21:59:27Z</time>
      </trkpt>
      <trkpt lat="47.01596" lon="-1.05128">
        <ele>123</ele>
        <time>2023-05-08T21:59:39Z</time>
      </trkpt>
      <trkpt lat="47.01587" lon="-1.05248">
        <ele>122</ele>
        <time>2023-05-08T21:59:53Z</time>
      </trkpt>
      <trkpt lat="47.01588" lon="-1.05284">
        <ele>121</ele>
        <time>2023-05-08T21:59:58Z</time>
      </trkpt>
      <trkpt lat="47.01605" lon="-1.05435">
        <ele>118</ele>
        <time>2023-05-08T22:00:16Z</time>
      </trkpt>
      <trkpt lat="47.01607" lon="-1.05459">
        <ele>118</ele>
        <time>2023-05-08T22:00:19Z</time>
      </trkpt>
      <trkpt lat="47.01606" lon="-1.05491">
        <ele>118</ele>
        <time>2023-05-08T22:00:23Z</time>
      </trkpt>
      <trkpt lat="47.01627" lon="-1.05495">
        <ele>119</ele>
        <time>2023-05-08T22:00:27Z</time>
      </trkpt>
      <trkpt lat="47.01627" lon="-1.05495">
        <ele>119</ele>
        <time>2023-05-08T22:00:27Z</time>
      </trkpt>
      <trkpt lat="47.01686" lon="-1.05506">
        <ele>121</ele>
        <time>2023-05-08T22:00:38Z</time>
      </trkpt>
      <trkpt lat="47.01708" lon="-1.05465">
        <ele>122</ele>
        <time>2023-05-08T22:00:44Z</time>
      </trkpt>
      <trkpt lat="47.01727" lon="-1.05437">
        <ele>123</ele>
        <time>2023-05-08T22:00:49Z</time>
      </trkpt>
      <trkpt lat="47.01749" lon="-1.05412">
        <ele>124</ele>
        <time>2023-05-08T22:00:54Z</time>
      </trkpt>
      <trkpt lat="47.01777" lon="-1.0539">
        <ele>124</ele>
        <time>2023-05-08T22:00:59Z</time>
      </trkpt>
      <trkpt lat="47.01801" lon="-1.05376">
        <ele>124</ele>
        <time>2023-05-08T22:01:04Z</time>
      </trkpt>
      <trkpt lat="47.01827" lon="-1.05364">
        <ele>124</ele>
        <time>2023-05-08T22:01:09Z</time>
      </trkpt>
      <trkpt lat="47.01857" lon="-1.05358">
        <ele>125</ele>
        <time>2023-05-08T22:01:14Z</time>
      </trkpt>
      <trkpt lat="47.01892" lon="-1.05359">
        <ele>126</ele>
        <time>2023-05-08T22:01:20Z</time>
      </trkpt>
      <trkpt lat="47.01912" lon="-1.05362">
        <ele>126</ele>
        <time>2023-05-08T22:01:24Z</time>
      </trkpt>
      <trkpt lat="47.01929" lon="-1.05368">
        <ele>126</ele>
        <time>2023-05-08T22:01:27Z</time>
      </trkpt>
      <trkpt lat="47.01996" lon="-1.05147">
        <ele>128</ele>
        <time>2023-05-08T22:01:56Z</time>
      </trkpt>
      <trkpt lat="47.01994" lon="-1.05145">
        <ele>128</ele>
        <time>2023-05-08T22:01:57Z</time>
      </trkpt>
      <trkpt lat="47.01993" lon="-1.05135">
        <ele>128</ele>
        <time>2023-05-08T22:01:58Z</time>
      </trkpt>
      <trkpt lat="47.01999" lon="-1.05128">
        <ele>128</ele>
        <time>2023-05-08T22:01:59Z</time>
      </trkpt>
      <trkpt lat="47.02001" lon="-1.05129">
        <ele>128</ele>
        <time>2023-05-08T22:02:00Z</time>
      </trkpt>
      <trkpt lat="47.0204" lon="-1.05034">
        <ele>129</ele>
        <time>2023-05-08T22:02:13Z</time>
      </trkpt>
      <trkpt lat="47.02059" lon="-1.05001">
        <ele>130</ele>
        <time>2023-05-08T22:02:18Z</time>
      </trkpt>
      <trkpt lat="47.02097" lon="-1.04944">
        <ele>130</ele>
        <time>2023-05-08T22:02:28Z</time>
      </trkpt>
      <trkpt lat="47.02121" lon="-1.04912">
        <ele>131</ele>
        <time>2023-05-08T22:02:34Z</time>
      </trkpt>
      <trkpt lat="47.02213" lon="-1.04756">
        <ele>131</ele>
        <time>2023-05-08T22:02:59Z</time>
      </trkpt>
      <trkpt lat="47.02237" lon="-1.04729">
        <ele>131</ele>
        <time>2023-05-08T22:03:04Z</time>
      </trkpt>
      <trkpt lat="47.02237" lon="-1.04725">
        <ele>131</ele>
        <time>2023-05-08T22:03:05Z</time>
      </trkpt>
      <trkpt lat="47.02241" lon="-1.04721">
        <ele>131</ele>
        <time>2023-05-08T22:03:06Z</time>
      </trkpt>
      <trkpt lat="47.0226" lon="-1.04687">
        <ele>132</ele>
        <time>2023-05-08T22:03:11Z</time>
      </trkpt>
      <trkpt lat="47.0231" lon="-1.04579">
        <ele>130</ele>
        <time>2023-05-08T22:03:27Z</time>
      </trkpt>
      <trkpt lat="47.02321" lon="-1.04552">
        <ele>130</ele>
        <time>2023-05-08T22:03:31Z</time>
      </trkpt>
      <trkpt lat="47.02396" lon="-1.04331">
        <ele>133</ele>
        <time>2023-05-08T22:04:01Z</time>
      </trkpt>
      <trkpt lat="47.02461" lon="-1.04116">
        <ele>133</ele>
        <time>2023-05-08T22:04:29Z</time>
      </trkpt>
      <trkpt lat="47.02478" lon="-1.04055">
        <ele>133</ele>
        <time>2023-05-08T22:04:37Z</time>
      </trkpt>
      <trkpt lat="47.02501" lon="-1.03964">
        <ele>133</ele>
        <time>2023-05-08T22:04:49Z</time>
      </trkpt>
      <trkpt lat="47.02508" lon="-1.03932">
        <ele>134</ele>
        <time>2023-05-08T22:04:53Z</time>
      </trkpt>
      <trkpt lat="47.02512" lon="-1.03899">
        <ele>134</ele>
        <time>2023-05-08T22:04:57Z</time>
      </trkpt>
      <trkpt lat="47.02548" lon="-1.03514">
        <ele>134</ele>
        <time>2023-05-08T22:05:44Z</time>
      </trkpt>
      <trkpt lat="47.02564" lon="-1.03414">
        <ele>134</ele>
        <time>2023-05-08T22:05:57Z</time>
      </trkpt>
      <trkpt lat="47.02601" lon="-1.03223">
        <ele>134</ele>
        <time>2023-05-08T22:06:21Z</time>
      </trkpt>
      <trkpt lat="47.02618" lon="-1.03106">
        <ele>135</ele>
        <time>2023-05-08T22:06:35Z</time>
      </trkpt>
      <trkpt lat="47.02631" lon="-1.02993">
        <ele>135</ele>
        <time>2023-05-08T22:06:49Z</time>
      </trkpt>
      <trkpt lat="47.0264" lon="-1.02993">
        <ele>135</ele>
        <time>2023-05-08T22:06:51Z</time>
      </trkpt>
      <trkpt lat="47.02653" lon="-1.02987">
        <ele>134</ele>
        <time>2023-05-08T22:06:53Z</time>
      </trkpt>
      <trkpt lat="47.02802" lon="-1.02853">
        <ele>132</ele>
        <time>2023-05-08T22:07:24Z</time>
      </trkpt>
      <trkpt lat="47.02822" lon="-1.02841">
        <ele>133</ele>
        <time>2023-05-08T22:07:28Z</time>
      </trkpt>
      <trkpt lat="47.02839" lon="-1.02847">
        <ele>133</ele>
        <time>2023-05-08T22:07:31Z</time>
      </trkpt>
      <trkpt lat="47.02856" lon="-1.02876">
        <ele>132</ele>
        <time>2023-05-08T22:07:36Z</time>
      </trkpt>
      <trkpt lat="47.02862" lon="-1.02882">
        <ele>131</ele>
        <time>2023-05-08T22:07:37Z</time>
      </trkpt>
      <trkpt lat="47.0287" lon="-1.02884">
        <ele>131</ele>
        <time>2023-05-08T22:07:39Z</time>
      </trkpt>
      <trkpt lat="47.0289" lon="-1.02875">
        <ele>131</ele>
        <time>2023-05-08T22:07:42Z</time>
      </trkpt>
      <trkpt lat="47.02898" lon="-1.02875">
        <ele>131</ele>
        <time>2023-05-08T22:07:44Z</time>
      </trkpt>
      <trkpt lat="47.03044" lon="-1.02943">
        <ele>132</ele>
        <time>2023-05-08T22:08:11Z</time>
      </trkpt>
      <trkpt lat="47.03044" lon="-1.02943">
        <ele>132</ele>
        <time>2023-05-08T22:08:11Z</time>
      </trkpt>
      <trkpt lat="47.03287" lon="-1.03063">
        <ele>131</ele>
        <time>2023-05-08T22:08:57Z</time>
      </trkpt>
      <trkpt lat="47.03696" lon="-1.03288">
        <ele>131</ele>
        <time>2023-05-08T22:10:14Z</time>
      </trkpt>
      <trkpt lat="47.03715" lon="-1.03308">
        <ele>131</ele>
        <time>2023-05-08T22:10:18Z</time>
      </trkpt>
      <trkpt lat="47.03785" lon="-1.03394">
        <ele>131</ele>
        <time>2023-05-08T22:10:35Z</time>
      </trkpt>
      <trkpt lat="47.03883" lon="-1.0352">
        <ele>131</ele>
        <time>2023-05-08T22:10:58Z</time>
      </trkpt>
      <trkpt lat="47.03994" lon="-1.03665">
        <ele>128</ele>
        <time>2023-05-08T22:11:24Z</time>
      </trkpt>
      <trkpt lat="47.03997" lon="-1.03671">
        <ele>128</ele>
        <time>2023-05-08T22:11:25Z</time>
      </trkpt>
      <trkpt lat="47.04154" lon="-1.03591">
        <ele>128</ele>
        <time>2023-05-08T22:11:55Z</time>
      </trkpt>
      <trkpt lat="47.04173" lon="-1.03583">
        <ele>128</ele>
        <time>2023-05-08T22:11:58Z</time>
      </trkpt>
      <trkpt lat="47.04191" lon="-1.03577">
        <ele>128</ele>
        <time>2023-05-08T22:12:02Z</time>
      </trkpt>
      <trkpt lat="47.04217" lon="-1.03574">
        <ele>129</ele>
        <time>2023-05-08T22:12:06Z</time>
      </trkpt>
      <trkpt lat="47.04516" lon="-1.03583">
        <ele>124</ele>
        <time>2023-05-08T22:12:59Z</time>
      </trkpt>
      <trkpt lat="47.04543" lon="-1.03582">
        <ele>123</ele>
        <time>2023-05-08T22:13:04Z</time>
      </trkpt>
      <trkpt lat="47.04571" lon="-1.03577">
        <ele>122</ele>
        <time>2023-05-08T22:13:09Z</time>
      </trkpt>
      <trkpt lat="47.04598" lon="-1.03564">
        <ele>121</ele>
        <time>2023-05-08T22:13:14Z</time>
      </trkpt>
      <trkpt lat="47.04625" lon="-1.03543">
        <ele>120</ele>
        <time>2023-05-08T22:13:20Z</time>
      </trkpt>
      <trkpt lat="47.05324" lon="-1.02798">
        <ele>129</ele>
        <time>2023-05-08T22:15:54Z</time>
      </trkpt>
      <trkpt lat="47.05376" lon="-1.02744">
        <ele>127</ele>
        <time>2023-05-08T22:16:05Z</time>
      </trkpt>
      <trkpt lat="47.05396" lon="-1.02731">
        <ele>127</ele>
        <time>2023-05-08T22:16:09Z</time>
      </trkpt>
      <trkpt lat="47.05413" lon="-1.02724">
        <ele>127</ele>
        <time>2023-05-08T22:16:12Z</time>
      </trkpt>
      <trkpt lat="47.05499" lon="-1.02701">
        <ele>124</ele>
        <time>2023-05-08T22:16:27Z</time>
      </trkpt>
      <trkpt lat="47.05531" lon="-1.02698">
        <ele>123</ele>
        <time>2023-05-08T22:16:33Z</time>
      </trkpt>
      <trkpt lat="47.05532" lon="-1.02682">
        <ele>123</ele>
        <time>2023-05-08T22:16:35Z</time>
      </trkpt>
      <trkpt lat="47.05534" lon="-1.02679">
        <ele>123</ele>
        <time>2023-05-08T22:16:36Z</time>
      </trkpt>
      <trkpt lat="47.05568" lon="-1.02657">
        <ele>122</ele>
        <time>2023-05-08T22:16:42Z</time>
      </trkpt>
      <trkpt lat="47.05574" lon="-1.02651">
        <ele>121</ele>
        <time>2023-05-08T22:16:43Z</time>
      </trkpt>
      <trkpt lat="47.05575" lon="-1.02642">
        <ele>121</ele>
        <time>2023-05-08T22:16:45Z</time>
      </trkpt>
      <trkpt lat="47.05571" lon="-1.0263">
        <ele>121</ele>
        <time>2023-05-08T22:16:46Z</time>
      </trkpt>
      <trkpt lat="47.05529" lon="-1.02551">
        <ele>122</ele>
        <time>2023-05-08T22:16:58Z</time>
      </trkpt>
      <trkpt lat="47.05507" lon="-1.02493">
        <ele>121</ele>
        <time>2023-05-08T22:17:06Z</time>
      </trkpt>
      <trkpt lat="47.05484" lon="-1.02426">
        <ele>119</ele>
        <time>2023-05-08T22:17:16Z</time>
      </trkpt>
      <trkpt lat="47.05478" lon="-1.02385">
        <ele>119</ele>
        <time>2023-05-08T22:17:21Z</time>
      </trkpt>
      <trkpt lat="47.05451" lon="-1.02253">
        <ele>117</ele>
        <time>2023-05-08T22:17:37Z</time>
      </trkpt>
      <trkpt lat="47.05439" lon="-1.02096">
        <ele>117</ele>
        <time>2023-05-08T22:17:56Z</time>
      </trkpt>
      <trkpt lat="47.05438" lon="-1.02048">
        <ele>117</ele>
        <time>2023-05-08T22:18:02Z</time>
      </trkpt>
      <trkpt lat="47.0544" lon="-1.01999">
        <ele>116</ele>
        <time>2023-05-08T22:18:08Z</time>
      </trkpt>
      <trkpt lat="47.05445" lon="-1.01948">
        <ele>117</ele>
        <time>2023-05-08T22:18:14Z</time>
      </trkpt>
      <trkpt lat="47.05466" lon="-1.01805">
        <ele>117</ele>
        <time>2023-05-08T22:18:32Z</time>
      </trkpt>
      <trkpt lat="47.05482" lon="-1.0172">
        <ele>116</ele>
        <time>2023-05-08T22:18:43Z</time>
      </trkpt>
      <trkpt lat="47.05503" lon="-1.01574">
        <ele>110</ele>
        <time>2023-05-08T22:19:01Z</time>
      </trkpt>
      <trkpt lat="47.05519" lon="-1.01482">
        <ele>107</ele>
        <time>2023-05-08T22:19:12Z</time>
      </trkpt>
      <trkpt lat="47.0554" lon="-1.01379">
        <ele>104</ele>
        <time>2023-05-08T22:19:26Z</time>
      </trkpt>
      <trkpt lat="47.05549" lon="-1.01311">
        <ele>102</ele>
        <time>2023-05-08T22:19:34Z</time>
      </trkpt>
      <trkpt lat="47.05547" lon="-1.01301">
        <ele>102</ele>
        <time>2023-05-08T22:19:35Z</time>
      </trkpt>
      <trkpt lat="47.0554" lon="-1.01288">
        <ele>102</ele>
        <time>2023-05-08T22:19:37Z</time>
      </trkpt>
      <trkpt lat="47.0554" lon="-1.01281">
        <ele>102</ele>
        <time>2023-05-08T22:19:38Z</time>
      </trkpt>
      <trkpt lat="47.05539" lon="-1.01277">
        <ele>102</ele>
        <time>2023-05-08T22:19:39Z</time>
      </trkpt>
      <trkpt lat="47.05545" lon="-1.01271">
        <ele>101</ele>
        <time>2023-05-08T22:19:40Z</time>
      </trkpt>
      <trkpt lat="47.05531" lon="-1.01235">
        <ele>100</ele>
        <time>2023-05-08T22:19:45Z</time>
      </trkpt>
      <trkpt lat="47.05523" lon="-1.01203">
        <ele>99</ele>
        <time>2023-05-08T22:19:49Z</time>
      </trkpt>
      <trkpt lat="47.05517" lon="-1.01166">
        <ele>97</ele>
        <time>2023-05-08T22:19:54Z</time>
      </trkpt>
      <trkpt lat="47.05514" lon="-1.01136">
        <ele>97</ele>
        <time>2023-05-08T22:19:57Z</time>
      </trkpt>
      <trkpt lat="47.05507" lon="-1.01099">
        <ele>97</ele>
        <time>2023-05-08T22:20:02Z</time>
      </trkpt>
      <trkpt lat="47.05495" lon="-1.01072">
        <ele>98</ele>
        <time>2023-05-08T22:20:06Z</time>
      </trkpt>
      <trkpt lat="47.0538" lon="-1.009">
        <ele>103</ele>
        <time>2023-05-08T22:20:35Z</time>
      </trkpt>
      <trkpt lat="47.05359" lon="-1.00879">
        <ele>103</ele>
        <time>2023-05-08T22:20:40Z</time>
      </trkpt>
      <trkpt lat="47.05311" lon="-1.00843">
        <ele>104</ele>
        <time>2023-05-08T22:20:49Z</time>
      </trkpt>
      <trkpt lat="47.05296" lon="-1.00829">
        <ele>104</ele>
        <time>2023-05-08T22:20:52Z</time>
      </trkpt>
      <trkpt lat="47.05275" lon="-1.00794">
        <ele>104</ele>
        <time>2023-05-08T22:20:58Z</time>
      </trkpt>
      <trkpt lat="47.05248" lon="-1.00738">
        <ele>104</ele>
        <time>2023-05-08T22:21:06Z</time>
      </trkpt>
      <trkpt lat="47.05233" lon="-1.00699">
        <ele>104</ele>
        <time>2023-05-08T22:21:12Z</time>
      </trkpt>
      <trkpt lat="47.0516" lon="-1.00548">
        <ele>105</ele>
        <time>2023-05-08T22:21:34Z</time>
      </trkpt>
      <trkpt lat="47.05121" lon="-1.00456">
        <ele>106</ele>
        <time>2023-05-08T22:21:47Z</time>
      </trkpt>
      <trkpt lat="47.05107" lon="-1.00406">
        <ele>106</ele>
        <time>2023-05-08T22:21:54Z</time>
      </trkpt>
      <trkpt lat="47.05064" lon="-1.00212">
        <ele>104</ele>
        <time>2023-05-08T22:22:19Z</time>
      </trkpt>
      <trkpt lat="47.04938" lon="-0.99712">
        <ele>95</ele>
        <time>2023-05-08T22:23:23Z</time>
      </trkpt>
      <trkpt lat="47.0492" lon="-0.9968">
        <ele>95</ele>
        <time>2023-05-08T22:23:28Z</time>
      </trkpt>
      <trkpt lat="47.0484" lon="-0.99581">
        <ele>96</ele>
        <time>2023-05-08T22:23:47Z</time>
      </trkpt>
      <trkpt lat="47.04798" lon="-0.99518">
        <ele>94</ele>
        <time>2023-05-08T22:23:58Z</time>
      </trkpt>
      <trkpt lat="47.04628" lon="-0.99184">
        <ele>94</ele>
        <time>2023-05-08T22:24:48Z</time>
      </trkpt>
      <trkpt lat="47.046" lon="-0.99088">
        <ele>93</ele>
        <time>2023-05-08T22:25:01Z</time>
      </trkpt>
      <trkpt lat="47.04582" lon="-0.98933">
        <ele>91</ele>
        <time>2023-05-08T22:25:20Z</time>
      </trkpt>
      <trkpt lat="47.04555" lon="-0.9882">
        <ele>90</ele>
        <time>2023-05-08T22:25:34Z</time>
      </trkpt>
      <trkpt lat="47.04528" lon="-0.98652">
        <ele>88</ele>
        <time>2023-05-08T22:25:55Z</time>
      </trkpt>
      <trkpt lat="47.04525" lon="-0.9861">
        <ele>88</ele>
        <time>2023-05-08T22:26:00Z</time>
      </trkpt>
      <trkpt lat="47.04532" lon="-0.98534">
        <ele>88</ele>
        <time>2023-05-08T22:26:10Z</time>
      </trkpt>
      <trkpt lat="47.04529" lon="-0.98503">
        <ele>88</ele>
        <time>2023-05-08T22:26:13Z</time>
      </trkpt>
      <trkpt lat="47.04521" lon="-0.98476">
        <ele>88</ele>
        <time>2023-05-08T22:26:17Z</time>
      </trkpt>
      <trkpt lat="47.0446" lon="-0.98338">
        <ele>85</ele>
        <time>2023-05-08T22:26:37Z</time>
      </trkpt>
      <trkpt lat="47.04367" lon="-0.98082">
        <ele>84</ele>
        <time>2023-05-08T22:27:12Z</time>
      </trkpt>
      <trkpt lat="47.04351" lon="-0.98042">
        <ele>84</ele>
        <time>2023-05-08T22:27:18Z</time>
      </trkpt>
      <trkpt lat="47.04284" lon="-0.97903">
        <ele>82</ele>
        <time>2023-05-08T22:27:38Z</time>
      </trkpt>
      <trkpt lat="47.04255" lon="-0.97804">
        <ele>81</ele>
        <time>2023-05-08T22:27:52Z</time>
      </trkpt>
      <trkpt lat="47.04245" lon="-0.97766">
        <ele>81</ele>
        <time>2023-05-08T22:27:56Z</time>
      </trkpt>
      <trkpt lat="47.04236" lon="-0.9771">
        <ele>80</ele>
        <time>2023-05-08T22:28:03Z</time>
      </trkpt>
      <trkpt lat="47.04235" lon="-0.97686">
        <ele>79</ele>
        <time>2023-05-08T22:28:06Z</time>
      </trkpt>
      <trkpt lat="47.04243" lon="-0.97599">
        <ele>78</ele>
        <time>2023-05-08T22:28:17Z</time>
      </trkpt>
      <trkpt lat="47.04241" lon="-0.97575">
        <ele>78</ele>
        <time>2023-05-08T22:28:20Z</time>
      </trkpt>
      <trkpt lat="47.04238" lon="-0.97564">
        <ele>78</ele>
        <time>2023-05-08T22:28:21Z</time>
      </trkpt>
      <trkpt lat="47.04219" lon="-0.97533">
        <ele>77</ele>
        <time>2023-05-08T22:28:26Z</time>
      </trkpt>
      <trkpt lat="47.04159" lon="-0.97454">
        <ele>79</ele>
        <time>2023-05-08T22:28:41Z</time>
      </trkpt>
      <trkpt lat="47.0412" lon="-0.97394">
        <ele>81</ele>
        <time>2023-05-08T22:28:51Z</time>
      </trkpt>
      <trkpt lat="47.04096" lon="-0.97348">
        <ele>81</ele>
        <time>2023-05-08T22:28:58Z</time>
      </trkpt>
      <trkpt lat="47.04043" lon="-0.97231">
        <ele>79</ele>
        <time>2023-05-08T22:29:15Z</time>
      </trkpt>
      <trkpt lat="47.04013" lon="-0.97169">
        <ele>79</ele>
        <time>2023-05-08T22:29:24Z</time>
      </trkpt>
      <trkpt lat="47.03963" lon="-0.97082">
        <ele>79</ele>
        <time>2023-05-08T22:29:38Z</time>
      </trkpt>
      <trkpt lat="47.03929" lon="-0.97005">
        <ele>82</ele>
        <time>2023-05-08T22:29:49Z</time>
      </trkpt>
      <trkpt lat="47.03918" lon="-0.96985">
        <ele>83</ele>
        <time>2023-05-08T22:29:52Z</time>
      </trkpt>
      <trkpt lat="47.03891" lon="-0.96946">
        <ele>85</ele>
        <time>2023-05-08T22:29:59Z</time>
      </trkpt>
      <trkpt lat="47.03883" lon="-0.96931">
        <ele>85</ele>
        <time>2023-05-08T22:30:01Z</time>
      </trkpt>
      <trkpt lat="47.03872" lon="-0.96908">
        <ele>85</ele>
        <time>2023-05-08T22:30:05Z</time>
      </trkpt>
      <trkpt lat="47.0386" lon="-0.96856">
        <ele>86</ele>
        <time>2023-05-08T22:30:11Z</time>
      </trkpt>
      <trkpt lat="47.03848" lon="-0.96832">
        <ele>87</ele>
        <time>2023-05-08T22:30:15Z</time>
      </trkpt>
      <trkpt lat="47.0377" lon="-0.96739">
        <ele>90</ele>
        <time>2023-05-08T22:30:33Z</time>
      </trkpt>
      <trkpt lat="47.0374" lon="-0.96695">
        <ele>91</ele>
        <time>2023-05-08T22:30:40Z</time>
      </trkpt>
      <trkpt lat="47.0374" lon="-0.96695">
        <ele>91</ele>
        <time>2023-05-08T22:30:40Z</time>
      </trkpt>
      <trkpt lat="47.03647" lon="-0.96553">
        <ele>94</ele>
        <time>2023-05-08T22:31:04Z</time>
      </trkpt>
      <trkpt lat="47.03623" lon="-0.9651">
        <ele>94</ele>
        <time>2023-05-08T22:31:11Z</time>
      </trkpt>
      <trkpt lat="47.03603" lon="-0.96453">
        <ele>95</ele>
        <time>2023-05-08T22:31:19Z</time>
      </trkpt>
      <trkpt lat="47.03459" lon="-0.9612">
        <ele>96</ele>
        <time>2023-05-08T22:32:07Z</time>
      </trkpt>
      <trkpt lat="47.03432" lon="-0.96065">
        <ele>96</ele>
        <time>2023-05-08T22:32:15Z</time>
      </trkpt>
      <trkpt lat="47.03335" lon="-0.95928">
        <ele>96</ele>
        <time>2023-05-08T22:32:39Z</time>
      </trkpt>
      <trkpt lat="47.03241" lon="-0.95799">
        <ele>100</ele>
        <time>2023-05-08T22:33:02Z</time>
      </trkpt>
      <trkpt lat="47.03219" lon="-0.95778">
        <ele>100</ele>
        <time>2023-05-08T22:33:06Z</time>
      </trkpt>
      <trkpt lat="47.03197" lon="-0.95763">
        <ele>101</ele>
        <time>2023-05-08T22:33:11Z</time>
      </trkpt>
      <trkpt lat="47.03146" lon="-0.95737">
        <ele>101</ele>
        <time>2023-05-08T22:33:20Z</time>
      </trkpt>
      <trkpt lat="47.03124" lon="-0.9572">
        <ele>101</ele>
        <time>2023-05-08T22:33:25Z</time>
      </trkpt>
      <trkpt lat="47.03103" lon="-0.95697">
        <ele>101</ele>
        <time>2023-05-08T22:33:29Z</time>
      </trkpt>
      <trkpt lat="47.03056" lon="-0.9563">
        <ele>101</ele>
        <time>2023-05-08T22:33:41Z</time>
      </trkpt>
      <trkpt lat="47.02923" lon="-0.9529">
        <ele>98</ele>
        <time>2023-05-08T22:34:28Z</time>
      </trkpt>
      <trkpt lat="47.03045" lon="-0.95238">
        <ele>100</ele>
        <time>2023-05-08T22:34:51Z</time>
      </trkpt>
      <trkpt lat="47.03077" lon="-0.95219">
        <ele>100</ele>
        <time>2023-05-08T22:34:57Z</time>
      </trkpt>
      <trkpt lat="47.03132" lon="-0.95174">
        <ele>98</ele>
        <time>2023-05-08T22:35:08Z</time>
      </trkpt>
      <trkpt lat="47.03189" lon="-0.9511">
        <ele>97</ele>
        <time>2023-05-08T22:35:21Z</time>
      </trkpt>
      <trkpt lat="47.03258" lon="-0.95018">
        <ele>99</ele>
        <time>2023-05-08T22:35:38Z</time>
      </trkpt>
      <trkpt lat="47.03292" lon="-0.94952">
        <ele>98</ele>
        <time>2023-05-08T22:35:48Z</time>
      </trkpt>
      <trkpt lat="47.03324" lon="-0.9486">
        <ele>93</ele>
        <time>2023-05-08T22:36:00Z</time>
      </trkpt>
      <trkpt lat="47.03333" lon="-0.94818">
        <ele>92</ele>
        <time>2023-05-08T22:36:06Z</time>
      </trkpt>
      <trkpt lat="47.03337" lon="-0.94792">
        <ele>91</ele>
        <time>2023-05-08T22:36:09Z</time>
      </trkpt>
      <trkpt lat="47.03333" lon="-0.94791">
        <ele>91</ele>
        <time>2023-05-08T22:36:10Z</time>
      </trkpt>
      <trkpt lat="47.03329" lon="-0.94784">
        <ele>91</ele>
        <time>2023-05-08T22:36:11Z</time>
      </trkpt>
      <trkpt lat="47.03328" lon="-0.94775">
        <ele>91</ele>
        <time>2023-05-08T22:36:12Z</time>
      </trkpt>
      <trkpt lat="47.03331" lon="-0.94767">
        <ele>90</ele>
        <time>2023-05-08T22:36:13Z</time>
      </trkpt>
      <trkpt lat="47.03337" lon="-0.94763">
        <ele>90</ele>
        <time>2023-05-08T22:36:14Z</time>
      </trkpt>
      <trkpt lat="47.0334" lon="-0.94763">
        <ele>90</ele>
        <time>2023-05-08T22:36:15Z</time>
      </trkpt>
      <trkpt lat="47.03351" lon="-0.94696">
        <ele>89</ele>
        <time>2023-05-08T22:36:23Z</time>
      </trkpt>
      <trkpt lat="47.03356" lon="-0.9462">
        <ele>89</ele>
        <time>2023-05-08T22:36:32Z</time>
      </trkpt>
      <trkpt lat="47.03356" lon="-0.94581">
        <ele>89</ele>
        <time>2023-05-08T22:36:37Z</time>
      </trkpt>
      <trkpt lat="47.03353" lon="-0.94544">
        <ele>89</ele>
        <time>2023-05-08T22:36:42Z</time>
      </trkpt>
      <trkpt lat="47.03345" lon="-0.9445">
        <ele>88</ele>
        <time>2023-05-08T22:36:53Z</time>
      </trkpt>
      <trkpt lat="47.03342" lon="-0.94348">
        <ele>86</ele>
        <time>2023-05-08T22:37:05Z</time>
      </trkpt>
      <trkpt lat="47.03339" lon="-0.94346">
        <ele>85</ele>
        <time>2023-05-08T22:37:06Z</time>
      </trkpt>
      <trkpt lat="47.03335" lon="-0.9434">
        <ele>85</ele>
        <time>2023-05-08T22:37:07Z</time>
      </trkpt>
      <trkpt lat="47.03335" lon="-0.94334">
        <ele>85</ele>
        <time>2023-05-08T22:37:08Z</time>
      </trkpt>
      <trkpt lat="47.03336" lon="-0.9433">
        <ele>85</ele>
        <time>2023-05-08T22:37:08Z</time>
      </trkpt>
      <trkpt lat="47.03341" lon="-0.94325">
        <ele>85</ele>
        <time>2023-05-08T22:37:09Z</time>
      </trkpt>
      <trkpt lat="47.03344" lon="-0.94324">
        <ele>85</ele>
        <time>2023-05-08T22:37:10Z</time>
      </trkpt>
      <trkpt lat="47.03343" lon="-0.94309">
        <ele>86</ele>
        <time>2023-05-08T22:37:12Z</time>
      </trkpt>
      <trkpt lat="47.0335" lon="-0.94195">
        <ele>88</ele>
        <time>2023-05-08T22:37:26Z</time>
      </trkpt>
      <trkpt lat="47.03337" lon="-0.94116">
        <ele>90</ele>
        <time>2023-05-08T22:37:35Z</time>
      </trkpt>
      <trkpt lat="47.03327" lon="-0.94084">
        <ele>91</ele>
        <time>2023-05-08T22:37:40Z</time>
      </trkpt>
      <trkpt lat="47.03327" lon="-0.94084">
        <ele>91</ele>
        <time>2023-05-08T22:37:40Z</time>
      </trkpt>
      <trkpt lat="47.0332" lon="-0.94065">
        <ele>92</ele>
        <time>2023-05-08T22:37:42Z</time>
      </trkpt>
      <trkpt lat="47.03278" lon="-0.94103">
        <ele>91</ele>
        <time>2023-05-08T22:37:51Z</time>
      </trkpt>
      <trkpt lat="47.03249" lon="-0.94123">
        <ele>90</ele>
        <time>2023-05-08T22:37:57Z</time>
      </trkpt>
      <trkpt lat="47.03237" lon="-0.94128">
        <ele>89</ele>
        <time>2023-05-08T22:37:59Z</time>
      </trkpt>
      <trkpt lat="47.03164" lon="-0.94144">
        <ele>88</ele>
        <time>2023-05-08T22:38:12Z</time>
      </trkpt>
      <trkpt lat="47.03132" lon="-0.94156">
        <ele>88</ele>
        <time>2023-05-08T22:38:18Z</time>
      </trkpt>
      <trkpt lat="47.03094" lon="-0.94172">
        <ele>88</ele>
        <time>2023-05-08T22:38:25Z</time>
      </trkpt>
      <trkpt lat="47.03031" lon="-0.94064">
        <ele>90</ele>
        <time>2023-05-08T22:38:42Z</time>
      </trkpt>
      <trkpt lat="47.03004" lon="-0.94043">
        <ele>90</ele>
        <time>2023-05-08T22:38:48Z</time>
      </trkpt>
      <trkpt lat="47.0301" lon="-0.94027">
        <ele>91</ele>
        <time>2023-05-08T22:38:50Z</time>
      </trkpt>
      <trkpt lat="47.03025" lon="-0.93972">
        <ele>91</ele>
        <time>2023-05-08T22:38:57Z</time>
      </trkpt>
      <trkpt lat="47.03032" lon="-0.93957">
        <ele>92</ele>
        <time>2023-05-08T22:38:59Z</time>
      </trkpt>
      <trkpt lat="47.03131" lon="-0.93814">
        <ele>91</ele>
        <time>2023-05-08T22:39:24Z</time>
      </trkpt>
      <trkpt lat="47.03167" lon="-0.93752">
        <ele>89</ele>
        <time>2023-05-08T22:39:34Z</time>
      </trkpt>
      <trkpt lat="47.03179" lon="-0.93722">
        <ele>88</ele>
        <time>2023-05-08T22:39:38Z</time>
      </trkpt>
      <trkpt lat="47.03175" lon="-0.93716">
        <ele>88</ele>
        <time>2023-05-08T22:39:39Z</time>
      </trkpt>
      <trkpt lat="47.03174" lon="-0.93707">
        <ele>88</ele>
        <time>2023-05-08T22:39:40Z</time>
      </trkpt>
      <trkpt lat="47.03175" lon="-0.93702">
        <ele>88</ele>
        <time>2023-05-08T22:39:41Z</time>
      </trkpt>
      <trkpt lat="47.03179" lon="-0.93695">
        <ele>87</ele>
        <time>2023-05-08T22:39:42Z</time>
      </trkpt>
      <trkpt lat="47.03182" lon="-0.93694">
        <ele>87</ele>
        <time>2023-05-08T22:39:43Z</time>
      </trkpt>
      <trkpt lat="47.03188" lon="-0.93695">
        <ele>87</ele>
        <time>2023-05-08T22:39:44Z</time>
      </trkpt>
      <trkpt lat="47.03191" lon="-0.93698">
        <ele>87</ele>
        <time>2023-05-08T22:39:44Z</time>
      </trkpt>
      <trkpt lat="47.032" lon="-0.9368">
        <ele>86</ele>
        <time>2023-05-08T22:39:47Z</time>
      </trkpt>
      <trkpt lat="47.03212" lon="-0.9364">
        <ele>85</ele>
        <time>2023-05-08T22:39:52Z</time>
      </trkpt>
      <trkpt lat="47.0323" lon="-0.93516">
        <ele>85</ele>
        <time>2023-05-08T22:40:08Z</time>
      </trkpt>
      <trkpt lat="47.03264" lon="-0.93317">
        <ele>87</ele>
        <time>2023-05-08T22:40:33Z</time>
      </trkpt>
      <trkpt lat="47.03268" lon="-0.93284">
        <ele>87</ele>
        <time>2023-05-08T22:40:37Z</time>
      </trkpt>
      <trkpt lat="47.03268" lon="-0.93252">
        <ele>87</ele>
        <time>2023-05-08T22:40:41Z</time>
      </trkpt>
      <trkpt lat="47.03265" lon="-0.93221">
        <ele>87</ele>
        <time>2023-05-08T22:40:44Z</time>
      </trkpt>
      <trkpt lat="47.03163" lon="-0.92787">
        <ele>90</ele>
        <time>2023-05-08T22:41:40Z</time>
      </trkpt>
      <trkpt lat="47.03153" lon="-0.92721">
        <ele>90</ele>
        <time>2023-05-08T22:41:48Z</time>
      </trkpt>
      <trkpt lat="47.03153" lon="-0.92687">
        <ele>90</ele>
        <time>2023-05-08T22:41:52Z</time>
      </trkpt>
      <trkpt lat="47.0316" lon="-0.92645">
        <ele>91</ele>
        <time>2023-05-08T22:41:58Z</time>
      </trkpt>
      <trkpt lat="47.03182" lon="-0.92589">
        <ele>93</ele>
        <time>2023-05-08T22:42:05Z</time>
      </trkpt>
      <trkpt lat="47.03303" lon="-0.92457">
        <ele>98</ele>
        <time>2023-05-08T22:42:32Z</time>
      </trkpt>
      <trkpt lat="47.03323" lon="-0.92409">
        <ele>99</ele>
        <time>2023-05-08T22:42:39Z</time>
      </trkpt>
      <trkpt lat="47.03334" lon="-0.92362">
        <ele>100</ele>
        <time>2023-05-08T22:42:45Z</time>
      </trkpt>
      <trkpt lat="47.03333" lon="-0.92299">
        <ele>101</ele>
        <time>2023-05-08T22:42:53Z</time>
      </trkpt>
      <trkpt lat="47.03318" lon="-0.92238">
        <ele>102</ele>
        <time>2023-05-08T22:43:01Z</time>
      </trkpt>
      <trkpt lat="47.0329" lon="-0.9219">
        <ele>102</ele>
        <time>2023-05-08T22:43:08Z</time>
      </trkpt>
      <trkpt lat="47.03257" lon="-0.92163">
        <ele>102</ele>
        <time>2023-05-08T22:43:15Z</time>
      </trkpt>
      <trkpt lat="47.03216" lon="-0.92145">
        <ele>103</ele>
        <time>2023-05-08T22:43:23Z</time>
      </trkpt>
      <trkpt lat="47.03213" lon="-0.92151">
        <ele>102</ele>
        <time>2023-05-08T22:43:23Z</time>
      </trkpt>
      <trkpt lat="47.03204" lon="-0.92158">
        <ele>102</ele>
        <time>2023-05-08T22:43:25Z</time>
      </trkpt>
      <trkpt lat="47.03194" lon="-0.92156">
        <ele>102</ele>
        <time>2023-05-08T22:43:27Z</time>
      </trkpt>
      <trkpt lat="47.0319" lon="-0.92151">
        <ele>102</ele>
        <time>2023-05-08T22:43:28Z</time>
      </trkpt>
      <trkpt lat="47.03185" lon="-0.92137">
        <ele>102</ele>
        <time>2023-05-08T22:43:30Z</time>
      </trkpt>
      <trkpt lat="47.03186" lon="-0.92129">
        <ele>102</ele>
        <time>2023-05-08T22:43:31Z</time>
      </trkpt>
      <trkpt lat="47.03188" lon="-0.92121">
        <ele>103</ele>
        <time>2023-05-08T22:43:32Z</time>
      </trkpt>
      <trkpt lat="47.0317" lon="-0.92105">
        <ele>102</ele>
        <time>2023-05-08T22:43:36Z</time>
      </trkpt>
      <trkpt lat="47.03157" lon="-0.92081">
        <ele>102</ele>
        <time>2023-05-08T22:43:39Z</time>
      </trkpt>
      <trkpt lat="47.03152" lon="-0.92065">
        <ele>102</ele>
        <time>2023-05-08T22:43:42Z</time>
      </trkpt>
      <trkpt lat="47.03148" lon="-0.9204">
        <ele>102</ele>
        <time>2023-05-08T22:43:45Z</time>
      </trkpt>
      <trkpt lat="47.03146" lon="-0.91949">
        <ele>102</ele>
        <time>2023-05-08T22:43:56Z</time>
      </trkpt>
      <trkpt lat="47.03109" lon="-0.91518">
        <ele>104</ele>
        <time>2023-05-08T22:44:48Z</time>
      </trkpt>
      <trkpt lat="47.03103" lon="-0.91517">
        <ele>103</ele>
        <time>2023-05-08T22:44:49Z</time>
      </trkpt>
      <trkpt lat="47.03098" lon="-0.91512">
        <ele>103</ele>
        <time>2023-05-08T22:44:51Z</time>
      </trkpt>
      <trkpt lat="47.03094" lon="-0.91505">
        <ele>103</ele>
        <time>2023-05-08T22:44:52Z</time>
      </trkpt>
      <trkpt lat="47.03092" lon="-0.91497">
        <ele>103</ele>
        <time>2023-05-08T22:44:53Z</time>
      </trkpt>
      <trkpt lat="47.03091" lon="-0.91489">
        <ele>103</ele>
        <time>2023-05-08T22:44:54Z</time>
      </trkpt>
      <trkpt lat="47.03096" lon="-0.91475">
        <ele>103</ele>
        <time>2023-05-08T22:44:56Z</time>
      </trkpt>
      <trkpt lat="47.03101" lon="-0.91469">
        <ele>104</ele>
        <time>2023-05-08T22:44:57Z</time>
      </trkpt>
      <trkpt lat="47.03109" lon="-0.91437">
        <ele>104</ele>
        <time>2023-05-08T22:45:01Z</time>
      </trkpt>
      <trkpt lat="47.03122" lon="-0.91285">
        <ele>104</ele>
        <time>2023-05-08T22:45:19Z</time>
      </trkpt>
      <trkpt lat="47.03123" lon="-0.91257">
        <ele>105</ele>
        <time>2023-05-08T22:45:23Z</time>
      </trkpt>
      <trkpt lat="47.0312" lon="-0.91214">
        <ele>107</ele>
        <time>2023-05-08T22:45:28Z</time>
      </trkpt>
      <trkpt lat="47.03115" lon="-0.91192">
        <ele>107</ele>
        <time>2023-05-08T22:45:31Z</time>
      </trkpt>
      <trkpt lat="47.0311" lon="-0.9118">
        <ele>108</ele>
        <time>2023-05-08T22:45:33Z</time>
      </trkpt>
      <trkpt lat="47.03104" lon="-0.91171">
        <ele>108</ele>
        <time>2023-05-08T22:45:34Z</time>
      </trkpt>
      <trkpt lat="47.03096" lon="-0.91171">
        <ele>108</ele>
        <time>2023-05-08T22:45:36Z</time>
      </trkpt>
      <trkpt lat="47.03087" lon="-0.91167">
        <ele>108</ele>
        <time>2023-05-08T22:45:37Z</time>
      </trkpt>
      <trkpt lat="47.0308" lon="-0.9116">
        <ele>108</ele>
        <time>2023-05-08T22:45:39Z</time>
      </trkpt>
      <trkpt lat="47.03075" lon="-0.91151">
        <ele>108</ele>
        <time>2023-05-08T22:45:40Z</time>
      </trkpt>
      <trkpt lat="47.03071" lon="-0.9114">
        <ele>108</ele>
        <time>2023-05-08T22:45:42Z</time>
      </trkpt>
      <trkpt lat="47.0307" lon="-0.91127">
        <ele>108</ele>
        <time>2023-05-08T22:45:43Z</time>
      </trkpt>
      <trkpt lat="47.03072" lon="-0.91112">
        <ele>108</ele>
        <time>2023-05-08T22:45:45Z</time>
      </trkpt>
      <trkpt lat="47.03077" lon="-0.91099">
        <ele>108</ele>
        <time>2023-05-08T22:45:47Z</time>
      </trkpt>
      <trkpt lat="47.03085" lon="-0.91089">
        <ele>108</ele>
        <time>2023-05-08T22:45:49Z</time>
      </trkpt>
      <trkpt lat="47.03094" lon="-0.91083">
        <ele>108</ele>
        <time>2023-05-08T22:45:51Z</time>
      </trkpt>
      <trkpt lat="47.03093" lon="-0.91066">
        <ele>108</ele>
        <time>2023-05-08T22:45:53Z</time>
      </trkpt>
      <trkpt lat="47.03089" lon="-0.91052">
        <ele>108</ele>
        <time>2023-05-08T22:45:54Z</time>
      </trkpt>
      <trkpt lat="47.03091" lon="-0.91044">
        <ele>108</ele>
        <time>2023-05-08T22:45:55Z</time>
      </trkpt>
      <trkpt lat="47.03101" lon="-0.91036">
        <ele>108</ele>
        <time>2023-05-08T22:45:58Z</time>
      </trkpt>
      <trkpt lat="47.03123" lon="-0.91026">
        <ele>109</ele>
        <time>2023-05-08T22:46:02Z</time>
      </trkpt>
      <trkpt lat="47.03141" lon="-0.9101">
        <ele>109</ele>
        <time>2023-05-08T22:46:05Z</time>
      </trkpt>
      <trkpt lat="47.03178" lon="-0.90966">
        <ele>110</ele>
        <time>2023-05-08T22:46:14Z</time>
      </trkpt>
      <trkpt lat="47.03179" lon="-0.90957">
        <ele>110</ele>
        <time>2023-05-08T22:46:15Z</time>
      </trkpt>
      <trkpt lat="47.03177" lon="-0.90944">
        <ele>109</ele>
        <time>2023-05-08T22:46:17Z</time>
      </trkpt>
      <trkpt lat="47.03068" lon="-0.9083">
        <ele>109</ele>
        <time>2023-05-08T22:46:40Z</time>
      </trkpt>
      <trkpt lat="47.02955" lon="-0.90671">
        <ele>112</ele>
        <time>2023-05-08T22:47:08Z</time>
      </trkpt>
      <trkpt lat="47.02902" lon="-0.90608">
        <ele>111</ele>
        <time>2023-05-08T22:47:20Z</time>
      </trkpt>
      <trkpt lat="47.02845" lon="-0.90531">
        <ele>110</ele>
        <time>2023-05-08T22:47:34Z</time>
      </trkpt>
      <trkpt lat="47.02831" lon="-0.90523">
        <ele>110</ele>
        <time>2023-05-08T22:47:37Z</time>
      </trkpt>
      <trkpt lat="47.02738" lon="-0.90488">
        <ele>109</ele>
        <time>2023-05-08T22:47:54Z</time>
      </trkpt>
      <trkpt lat="47.0271" lon="-0.90475">
        <ele>110</ele>
        <time>2023-05-08T22:47:59Z</time>
      </trkpt>
      <trkpt lat="47.026" lon="-0.90394">
        <ele>110</ele>
        <time>2023-05-08T22:48:21Z</time>
      </trkpt>
      <trkpt lat="47.02537" lon="-0.9037">
        <ele>111</ele>
        <time>2023-05-08T22:48:33Z</time>
      </trkpt>
      <trkpt lat="47.02519" lon="-0.9036">
        <ele>111</ele>
        <time>2023-05-08T22:48:36Z</time>
      </trkpt>
      <trkpt lat="47.02441" lon="-0.90298">
        <ele>112</ele>
        <time>2023-05-08T22:48:52Z</time>
      </trkpt>
      <trkpt lat="47.0234" lon="-0.90231">
        <ele>114</ele>
        <time>2023-05-08T22:49:12Z</time>
      </trkpt>
      <trkpt lat="47.02264" lon="-0.90161">
        <ele>121</ele>
        <time>2023-05-08T22:49:28Z</time>
      </trkpt>
      <trkpt lat="47.0205" lon="-0.90062">
        <ele>122</ele>
        <time>2023-05-08T22:50:07Z</time>
      </trkpt>
      <trkpt lat="47.01955" lon="-0.90045">
        <ele>123</ele>
        <time>2023-05-08T22:50:24Z</time>
      </trkpt>
      <trkpt lat="47.0187" lon="-0.90036">
        <ele>125</ele>
        <time>2023-05-08T22:50:40Z</time>
      </trkpt>
      <trkpt lat="47.0181" lon="-0.90037">
        <ele>125</ele>
        <time>2023-05-08T22:50:50Z</time>
      </trkpt>
      <trkpt lat="47.01812" lon="-0.90012">
        <ele>126</ele>
        <time>2023-05-08T22:50:53Z</time>
      </trkpt>
      <trkpt lat="47.01845" lon="-0.89937">
        <ele>127</ele>
        <time>2023-05-08T22:51:04Z</time>
      </trkpt>
      <trkpt lat="47.01845" lon="-0.89937">
        <ele>127</ele>
        <time>2023-05-08T22:51:04Z</time>
      </trkpt>
      <trkpt lat="47.01908" lon="-0.89797">
        <ele>131</ele>
        <time>2023-05-08T22:51:25Z</time>
      </trkpt>
      <trkpt lat="47.01952" lon="-0.89749">
        <ele>135</ele>
        <time>2023-05-08T22:51:34Z</time>
      </trkpt>
      <trkpt lat="47.02114" lon="-0.89604">
        <ele>136</ele>
        <time>2023-05-08T22:52:08Z</time>
      </trkpt>
      <trkpt lat="47.02309" lon="-0.89436">
        <ele>128</ele>
        <time>2023-05-08T22:52:48Z</time>
      </trkpt>
      <trkpt lat="47.02434" lon="-0.89323">
        <ele>123</ele>
        <time>2023-05-08T22:53:14Z</time>
      </trkpt>
      <trkpt lat="47.02502" lon="-0.89267">
        <ele>123</ele>
        <time>2023-05-08T22:53:28Z</time>
      </trkpt>
      <trkpt lat="47.02533" lon="-0.89253">
        <ele>123</ele>
        <time>2023-05-08T22:53:34Z</time>
      </trkpt>
      <trkpt lat="47.02578" lon="-0.89238">
        <ele>124</ele>
        <time>2023-05-08T22:53:42Z</time>
      </trkpt>
      <trkpt lat="47.02841" lon="-0.89157">
        <ele>124</ele>
        <time>2023-05-08T22:54:30Z</time>
      </trkpt>
      <trkpt lat="47.0295" lon="-0.8912">
        <ele>124</ele>
        <time>2023-05-08T22:54:50Z</time>
      </trkpt>
      <trkpt lat="47.02981" lon="-0.89113">
        <ele>124</ele>
        <time>2023-05-08T22:54:56Z</time>
      </trkpt>
      <trkpt lat="47.03142" lon="-0.89047">
        <ele>118</ele>
        <time>2023-05-08T22:55:25Z</time>
      </trkpt>
      <trkpt lat="47.03294" lon="-0.8899">
        <ele>111</ele>
        <time>2023-05-08T22:55:53Z</time>
      </trkpt>
      <trkpt lat="47.03364" lon="-0.88973">
        <ele>109</ele>
        <time>2023-05-08T22:56:06Z</time>
      </trkpt>
      <trkpt lat="47.03381" lon="-0.88965">
        <ele>109</ele>
        <time>2023-05-08T22:56:09Z</time>
      </trkpt>
      <trkpt lat="47.03448" lon="-0.88917">
        <ele>110</ele>
        <time>2023-05-08T22:56:22Z</time>
      </trkpt>
      <trkpt lat="47.03477" lon="-0.88904">
        <ele>110</ele>
        <time>2023-05-08T22:56:28Z</time>
      </trkpt>
      <trkpt lat="47.03534" lon="-0.88874">
        <ele>111</ele>
        <time>2023-05-08T22:56:38Z</time>
      </trkpt>
      <trkpt lat="47.03771" lon="-0.88685">
        <ele>114</ele>
        <time>2023-05-08T22:57:26Z</time>
      </trkpt>
      <trkpt lat="47.03903" lon="-0.88587">
        <ele>113</ele>
        <time>2023-05-08T22:57:53Z</time>
      </trkpt>
      <trkpt lat="47.03914" lon="-0.88577">
        <ele>113</ele>
        <time>2023-05-08T22:57:55Z</time>
      </trkpt>
      <trkpt lat="47.03921" lon="-0.88558">
        <ele>113</ele>
        <time>2023-05-08T22:57:58Z</time>
      </trkpt>
      <trkpt lat="47.03925" lon="-0.88551">
        <ele>113</ele>
        <time>2023-05-08T22:57:59Z</time>
      </trkpt>
      <trkpt lat="47.03917" lon="-0.88545">
        <ele>113</ele>
        <time>2023-05-08T22:58:00Z</time>
      </trkpt>
      <trkpt lat="47.03911" lon="-0.88534">
        <ele>113</ele>
        <time>2023-05-08T22:58:02Z</time>
      </trkpt>
      <trkpt lat="47.03909" lon="-0.88521">
        <ele>113</ele>
        <time>2023-05-08T22:58:04Z</time>
      </trkpt>
      <trkpt lat="47.03911" lon="-0.88508">
        <ele>113</ele>
        <time>2023-05-08T22:58:05Z</time>
      </trkpt>
      <trkpt lat="47.03916" lon="-0.88498">
        <ele>113</ele>
        <time>2023-05-08T22:58:07Z</time>
      </trkpt>
      <trkpt lat="47.03923" lon="-0.88492">
        <ele>113</ele>
        <time>2023-05-08T22:58:08Z</time>
      </trkpt>
      <trkpt lat="47.03936" lon="-0.88492">
        <ele>113</ele>
        <time>2023-05-08T22:58:11Z</time>
      </trkpt>
      <trkpt lat="47.03947" lon="-0.88503">
        <ele>113</ele>
        <time>2023-05-08T22:58:13Z</time>
      </trkpt>
      <trkpt lat="47.03951" lon="-0.88521">
        <ele>113</ele>
        <time>2023-05-08T22:58:15Z</time>
      </trkpt>
      <trkpt lat="47.03992" lon="-0.88511">
        <ele>112</ele>
        <time>2023-05-08T22:58:23Z</time>
      </trkpt>
      <trkpt lat="47.04054" lon="-0.88502">
        <ele>111</ele>
        <time>2023-05-08T22:58:34Z</time>
      </trkpt>
      <trkpt lat="47.04095" lon="-0.88502">
        <ele>110</ele>
        <time>2023-05-08T22:58:41Z</time>
      </trkpt>
      <trkpt lat="47.04159" lon="-0.88508">
        <ele>107</ele>
        <time>2023-05-08T22:58:52Z</time>
      </trkpt>
      <trkpt lat="47.04206" lon="-0.88515">
        <ele>106</ele>
        <time>2023-05-08T22:59:01Z</time>
      </trkpt>
      <trkpt lat="47.04342" lon="-0.88541">
        <ele>104</ele>
        <time>2023-05-08T22:59:25Z</time>
      </trkpt>
      <trkpt lat="47.04342" lon="-0.88558">
        <ele>103</ele>
        <time>2023-05-08T22:59:27Z</time>
      </trkpt>
      <trkpt lat="47.04349" lon="-0.88601">
        <ele>103</ele>
        <time>2023-05-08T22:59:33Z</time>
      </trkpt>
      <trkpt lat="47.04352" lon="-0.88644">
        <ele>102</ele>
        <time>2023-05-08T22:59:38Z</time>
      </trkpt>
      <trkpt lat="47.04346" lon="-0.88651">
        <ele>102</ele>
        <time>2023-05-08T22:59:39Z</time>
      </trkpt>
      <trkpt lat="47.04334" lon="-0.88675">
        <ele>102</ele>
        <time>2023-05-08T22:59:43Z</time>
      </trkpt>
      <trkpt lat="47.04312" lon="-0.88651">
        <ele>103</ele>
        <time>2023-05-08T22:59:48Z</time>
      </trkpt>
      <trkpt lat="47.04309" lon="-0.88658">
        <ele>103</ele>
        <time>2023-05-08T22:59:49Z</time>
      </trkpt>
    </trkseg>
  </trk>
</gpx>